<?xml version="1.0" encoding="utf-8"?>
<gpx xmlns:xsi="http://www.w3.org/2001/XMLSchema-instance" xmlns:xsd="http://www.w3.org/2001/XMLSchema" version="1.1" creator="Shapelink.com" xmlns="http://www.topografix.com/GPX/1/1" xmlns:gpxtpx="http://www.garmin.com/xmlschemas/TrackPointExtension/v1">
  <metadata>
    <name>Löpning 8.26 km, 2014-11-16</name>
    <desc></desc>
    <author><name>Stefan Östlund</name></author> 
    <time>2014-11-16T13:57:37Z</time>
  </metadata>
  <trk>
    <name>Löpning 8.26 km, 2014-11-16</name>
    <trkseg>
      <trkpt lat="59.985364135355" lon="15.824476629496">
        <ele>9.6</ele>
        <time>2014-11-16T13:57:37Z</time>
      </trkpt>
      <trkpt lat="59.985499419272" lon="15.824239840731">
        <ele>9.4</ele>
        <time>2014-11-16T13:57:43Z</time>
      </trkpt>
      <trkpt lat="59.985640067607" lon="15.82411008887">
        <ele>9</ele>
        <time>2014-11-16T13:57:49Z</time>
      </trkpt>
      <trkpt lat="59.98577057384" lon="15.824154429138">
        <ele>8.6</ele>
        <time>2014-11-16T13:57:55Z</time>
      </trkpt>
      <trkpt lat="59.98589001596" lon="15.824240008369">
        <ele>8.6</ele>
        <time>2014-11-16T13:58:00Z</time>
      </trkpt>
      <trkpt lat="59.985921531916" lon="15.8242789004">
        <ele>8</ele>
        <time>2014-11-16T13:58:06Z</time>
      </trkpt>
      <trkpt lat="59.985940055922" lon="15.824282839894">
        <ele>8</ele>
        <time>2014-11-16T13:58:07Z</time>
      </trkpt>
      <trkpt lat="59.986048182473" lon="15.824338076636">
        <ele>7.6</ele>
        <time>2014-11-16T13:58:12Z</time>
      </trkpt>
      <trkpt lat="59.98615404591" lon="15.824370346963">
        <ele>7.6</ele>
        <time>2014-11-16T13:58:17Z</time>
      </trkpt>
      <trkpt lat="59.986173491925" lon="15.824323827401">
        <ele>7.4</ele>
        <time>2014-11-16T13:58:18Z</time>
      </trkpt>
      <trkpt lat="59.986208863556" lon="15.824180915952">
        <ele>7.2</ele>
        <time>2014-11-16T13:58:21Z</time>
      </trkpt>
      <trkpt lat="59.986221855506" lon="15.824135569856">
        <ele>7.2</ele>
        <time>2014-11-16T13:58:22Z</time>
      </trkpt>
      <trkpt lat="59.986280277371" lon="15.823833821341">
        <ele>7.4</ele>
        <time>2014-11-16T13:58:28Z</time>
      </trkpt>
      <trkpt lat="59.986326126382" lon="15.823583872989">
        <ele>7.2</ele>
        <time>2014-11-16T13:58:33Z</time>
      </trkpt>
      <trkpt lat="59.986350182444" lon="15.823330236599">
        <ele>7.4</ele>
        <time>2014-11-16T13:58:38Z</time>
      </trkpt>
      <trkpt lat="59.986370047554" lon="15.823091352358">
        <ele>7.2</ele>
        <time>2014-11-16T13:58:43Z</time>
      </trkpt>
      <trkpt lat="59.986411873251" lon="15.822794968262">
        <ele>7.2</ele>
        <time>2014-11-16T13:58:49Z</time>
      </trkpt>
      <trkpt lat="59.986440371722" lon="15.822541667148">
        <ele>7.6</ele>
        <time>2014-11-16T13:58:54Z</time>
      </trkpt>
      <trkpt lat="59.986480018124" lon="15.822236733511">
        <ele>7.6</ele>
        <time>2014-11-16T13:59:00Z</time>
      </trkpt>
      <trkpt lat="59.986511869356" lon="15.821968344972">
        <ele>7.8</ele>
        <time>2014-11-16T13:59:05Z</time>
      </trkpt>
      <trkpt lat="59.986542211846" lon="15.821635080501">
        <ele>7.8</ele>
        <time>2014-11-16T13:59:11Z</time>
      </trkpt>
      <trkpt lat="59.986574314535" lon="15.8213650994">
        <ele>7.8</ele>
        <time>2014-11-16T13:59:16Z</time>
      </trkpt>
      <trkpt lat="59.986608847976" lon="15.82109847106">
        <ele>7.8</ele>
        <time>2014-11-16T13:59:21Z</time>
      </trkpt>
      <trkpt lat="59.986641034484" lon="15.820781132206">
        <ele>8</ele>
        <time>2014-11-16T13:59:27Z</time>
      </trkpt>
      <trkpt lat="59.986699204892" lon="15.820409897715">
        <ele>7.8</ele>
        <time>2014-11-16T13:59:34Z</time>
      </trkpt>
      <trkpt lat="59.986734073609" lon="15.820139497519">
        <ele>7.8</ele>
        <time>2014-11-16T13:59:39Z</time>
      </trkpt>
      <trkpt lat="59.986737342551" lon="15.819811848924">
        <ele>7.8</ele>
        <time>2014-11-16T13:59:45Z</time>
      </trkpt>
      <trkpt lat="59.986704234034" lon="15.819511692971">
        <ele>8.2</ele>
        <time>2014-11-16T13:59:51Z</time>
      </trkpt>
      <trkpt lat="59.986670874059" lon="15.819263672456">
        <ele>8.4</ele>
        <time>2014-11-16T13:59:56Z</time>
      </trkpt>
      <trkpt lat="59.986651428044" lon="15.818941136822">
        <ele>8.4</ele>
        <time>2014-11-16T14:00:02Z</time>
      </trkpt>
      <trkpt lat="59.986630557105" lon="15.818617427722">
        <ele>8.4</ele>
        <time>2014-11-16T14:00:08Z</time>
      </trkpt>
      <trkpt lat="59.986656038091" lon="15.818326072767">
        <ele>8</ele>
        <time>2014-11-16T14:00:13Z</time>
      </trkpt>
      <trkpt lat="59.986748658121" lon="15.818070424721">
        <ele>7.4</ele>
        <time>2014-11-16T14:00:18Z</time>
      </trkpt>
      <trkpt lat="59.986806241795" lon="15.817886441946">
        <ele>6.8</ele>
        <time>2014-11-16T14:00:22Z</time>
      </trkpt>
      <trkpt lat="59.986825520173" lon="15.81783589907">
        <ele>6.8</ele>
        <time>2014-11-16T14:00:23Z</time>
      </trkpt>
      <trkpt lat="59.986886205152" lon="15.817548399791">
        <ele>6.6</ele>
        <time>2014-11-16T14:00:29Z</time>
      </trkpt>
      <trkpt lat="59.986935406923" lon="15.817342204973">
        <ele>7</ele>
        <time>2014-11-16T14:00:33Z</time>
      </trkpt>
      <trkpt lat="59.986955020577" lon="15.81706803292">
        <ele>6.4</ele>
        <time>2014-11-16T14:00:38Z</time>
      </trkpt>
      <trkpt lat="59.986964073032" lon="15.816810037941">
        <ele>6.4</ele>
        <time>2014-11-16T14:00:43Z</time>
      </trkpt>
      <trkpt lat="59.986954685301" lon="15.816554389894">
        <ele>6.4</ele>
        <time>2014-11-16T14:00:48Z</time>
      </trkpt>
      <trkpt lat="59.986939430237" lon="15.816310141236">
        <ele>6.8</ele>
        <time>2014-11-16T14:00:53Z</time>
      </trkpt>
      <trkpt lat="59.986865501851" lon="15.816140156239">
        <ele>7.2</ele>
        <time>2014-11-16T14:00:58Z</time>
      </trkpt>
      <trkpt lat="59.986748658121" lon="15.816220287234">
        <ele>7.8</ele>
        <time>2014-11-16T14:01:02Z</time>
      </trkpt>
      <trkpt lat="59.986591245979" lon="15.816336125135">
        <ele>7.8</ele>
        <time>2014-11-16T14:01:08Z</time>
      </trkpt>
      <trkpt lat="59.986453196034" lon="15.816438971087">
        <ele>7.2</ele>
        <time>2014-11-16T14:01:13Z</time>
      </trkpt>
      <trkpt lat="59.986274410039" lon="15.8165486902">
        <ele>7</ele>
        <time>2014-11-16T14:01:20Z</time>
      </trkpt>
      <trkpt lat="59.986245324835" lon="15.816552042961">
        <ele>6.8</ele>
        <time>2014-11-16T14:01:21Z</time>
      </trkpt>
      <trkpt lat="59.986120685935" lon="15.816529998556">
        <ele>6.2</ele>
        <time>2014-11-16T14:01:25Z</time>
      </trkpt>
      <trkpt lat="59.986029826105" lon="15.81650887616">
        <ele>5.8</ele>
        <time>2014-11-16T14:01:28Z</time>
      </trkpt>
      <trkpt lat="59.985890602693" lon="15.816467721015">
        <ele>5.8</ele>
        <time>2014-11-16T14:01:33Z</time>
      </trkpt>
      <trkpt lat="59.98571684584" lon="15.816406952217">
        <ele>5.6</ele>
        <time>2014-11-16T14:01:39Z</time>
      </trkpt>
      <trkpt lat="59.985547615215" lon="15.81630972214">
        <ele>5.4</ele>
        <time>2014-11-16T14:01:45Z</time>
      </trkpt>
      <trkpt lat="59.985403027385" lon="15.816093720496">
        <ele>5.4</ele>
        <time>2014-11-16T14:01:51Z</time>
      </trkpt>
      <trkpt lat="59.985285345465" lon="15.815821979195">
        <ele>5.6</ele>
        <time>2014-11-16T14:01:57Z</time>
      </trkpt>
      <trkpt lat="59.985168585554" lon="15.815492821857">
        <ele>5.6</ele>
        <time>2014-11-16T14:02:04Z</time>
      </trkpt>
      <trkpt lat="59.985064649954" lon="15.815149918199">
        <ele>6</ele>
        <time>2014-11-16T14:02:10Z</time>
      </trkpt>
      <trkpt lat="59.985052328557" lon="15.815108595416">
        <ele>6.2</ele>
        <time>2014-11-16T14:02:11Z</time>
      </trkpt>
      <trkpt lat="59.984991224483" lon="15.814879937097">
        <ele>6.4</ele>
        <time>2014-11-16T14:02:16Z</time>
      </trkpt>
      <trkpt lat="59.98497244902" lon="15.814808188006">
        <ele>6.6</ele>
        <time>2014-11-16T14:02:21Z</time>
      </trkpt>
      <trkpt lat="59.984979489818" lon="15.814815144986">
        <ele>6.8</ele>
        <time>2014-11-16T14:02:27Z</time>
      </trkpt>
      <trkpt lat="59.984961804003" lon="15.814692685381">
        <ele>6.6</ele>
        <time>2014-11-16T14:02:33Z</time>
      </trkpt>
      <trkpt lat="59.984926180914" lon="15.814448017627">
        <ele>6.4</ele>
        <time>2014-11-16T14:02:38Z</time>
      </trkpt>
      <trkpt lat="59.98490748927" lon="15.814175270498">
        <ele>6</ele>
        <time>2014-11-16T14:02:43Z</time>
      </trkpt>
      <trkpt lat="59.984869938344" lon="15.813914258033">
        <ele>5.8</ele>
        <time>2014-11-16T14:02:48Z</time>
      </trkpt>
      <trkpt lat="59.984823167324" lon="15.813621394336">
        <ele>5.8</ele>
        <time>2014-11-16T14:02:54Z</time>
      </trkpt>
      <trkpt lat="59.984774636105" lon="15.813362812623">
        <ele>6</ele>
        <time>2014-11-16T14:02:59Z</time>
      </trkpt>
      <trkpt lat="59.984700204805" lon="15.813009180129">
        <ele>6.4</ele>
        <time>2014-11-16T14:03:06Z</time>
      </trkpt>
      <trkpt lat="59.984638513997" lon="15.812713801861">
        <ele>6.4</ele>
        <time>2014-11-16T14:03:12Z</time>
      </trkpt>
      <trkpt lat="59.984554024413" lon="15.812399061397">
        <ele>5.8</ele>
        <time>2014-11-16T14:03:18Z</time>
      </trkpt>
      <trkpt lat="59.984540026635" lon="15.812136707827">
        <ele>5.6</ele>
        <time>2014-11-16T14:03:23Z</time>
      </trkpt>
      <trkpt lat="59.984559305012" lon="15.811970829964">
        <ele>5.4</ele>
        <time>2014-11-16T14:03:26Z</time>
      </trkpt>
      <trkpt lat="59.984629880637" lon="15.811798246577">
        <ele>5</ele>
        <time>2014-11-16T14:03:30Z</time>
      </trkpt>
      <trkpt lat="59.984719399363" lon="15.811682660133">
        <ele>5</ele>
        <time>2014-11-16T14:03:35Z</time>
      </trkpt>
      <trkpt lat="59.984780754894" lon="15.811617448926">
        <ele>5.2</ele>
        <time>2014-11-16T14:03:38Z</time>
      </trkpt>
      <trkpt lat="59.984917715192" lon="15.811466658488">
        <ele>4.8</ele>
        <time>2014-11-16T14:03:43Z</time>
      </trkpt>
      <trkpt lat="59.985067164525" lon="15.811244118959">
        <ele>5.2</ele>
        <time>2014-11-16T14:03:49Z</time>
      </trkpt>
      <trkpt lat="59.985195491463" lon="15.810996768996">
        <ele>4.8</ele>
        <time>2014-11-16T14:03:55Z</time>
      </trkpt>
      <trkpt lat="59.985321974382" lon="15.81082418561">
        <ele>4.8</ele>
        <time>2014-11-16T14:04:00Z</time>
      </trkpt>
      <trkpt lat="59.985406547785" lon="15.8106761612">
        <ele>4.8</ele>
        <time>2014-11-16T14:04:04Z</time>
      </trkpt>
      <trkpt lat="59.985563876107" lon="15.810472229496">
        <ele>4.8</ele>
        <time>2014-11-16T14:04:10Z</time>
      </trkpt>
      <trkpt lat="59.985716426745" lon="15.810338705778">
        <ele>5</ele>
        <time>2014-11-16T14:04:16Z</time>
      </trkpt>
      <trkpt lat="59.98588046059" lon="15.810230914503">
        <ele>6.2</ele>
        <time>2014-11-16T14:04:23Z</time>
      </trkpt>
      <trkpt lat="59.98592890799" lon="15.810195961967">
        <ele>6.8</ele>
        <time>2014-11-16T14:04:25Z</time>
      </trkpt>
      <trkpt lat="59.986026221886" lon="15.810130666941">
        <ele>7.8</ele>
        <time>2014-11-16T14:04:29Z</time>
      </trkpt>
      <trkpt lat="59.986054301262" lon="15.810109628364">
        <ele>8</ele>
        <time>2014-11-16T14:04:30Z</time>
      </trkpt>
      <trkpt lat="59.986198050901" lon="15.810007788241">
        <ele>8.6</ele>
        <time>2014-11-16T14:04:36Z</time>
      </trkpt>
      <trkpt lat="59.986354960129" lon="15.809914330021">
        <ele>8.6</ele>
        <time>2014-11-16T14:04:42Z</time>
      </trkpt>
      <trkpt lat="59.986485382542" lon="15.809849705547">
        <ele>9</ele>
        <time>2014-11-16T14:04:47Z</time>
      </trkpt>
      <trkpt lat="59.98661454767" lon="15.809664633125">
        <ele>9.8</ele>
        <time>2014-11-16T14:04:53Z</time>
      </trkpt>
      <trkpt lat="59.986659726128" lon="15.809370595962">
        <ele>9.2</ele>
        <time>2014-11-16T14:04:58Z</time>
      </trkpt>
      <trkpt lat="59.986638352275" lon="15.809089299291">
        <ele>9</ele>
        <time>2014-11-16T14:05:03Z</time>
      </trkpt>
      <trkpt lat="59.986548162997" lon="15.808903723955">
        <ele>9.2</ele>
        <time>2014-11-16T14:05:08Z</time>
      </trkpt>
      <trkpt lat="59.986432492733" lon="15.808867765591">
        <ele>9.2</ele>
        <time>2014-11-16T14:05:12Z</time>
      </trkpt>
      <trkpt lat="59.986363174394" lon="15.80880464986">
        <ele>9.6</ele>
        <time>2014-11-16T14:05:16Z</time>
      </trkpt>
      <trkpt lat="59.986341381446" lon="15.808693422005">
        <ele>10.2</ele>
        <time>2014-11-16T14:05:19Z</time>
      </trkpt>
      <trkpt lat="59.986317576841" lon="15.808603903279">
        <ele>9.8</ele>
        <time>2014-11-16T14:05:21Z</time>
      </trkpt>
      <trkpt lat="59.986235601828" lon="15.808415142819">
        <ele>9.6</ele>
        <time>2014-11-16T14:05:25Z</time>
      </trkpt>
      <trkpt lat="59.986181203276" lon="15.808288743719">
        <ele>9.8</ele>
        <time>2014-11-16T14:05:28Z</time>
      </trkpt>
      <trkpt lat="59.986147172749" lon="15.808195117861">
        <ele>9.8</ele>
        <time>2014-11-16T14:05:30Z</time>
      </trkpt>
      <trkpt lat="59.986093947664" lon="15.808007027954">
        <ele>9.6</ele>
        <time>2014-11-16T14:05:34Z</time>
      </trkpt>
      <trkpt lat="59.98609084636" lon="15.807969225571">
        <ele>9.6</ele>
        <time>2014-11-16T14:05:35Z</time>
      </trkpt>
      <trkpt lat="59.986142646521" lon="15.807838384062">
        <ele>9.6</ele>
        <time>2014-11-16T14:05:38Z</time>
      </trkpt>
      <trkpt lat="59.986220765859" lon="15.807587597519">
        <ele>9</ele>
        <time>2014-11-16T14:05:43Z</time>
      </trkpt>
      <trkpt lat="59.986254209653" lon="15.807490367442">
        <ele>9</ele>
        <time>2014-11-16T14:05:45Z</time>
      </trkpt>
      <trkpt lat="59.986356804147" lon="15.80719104968">
        <ele>9.2</ele>
        <time>2014-11-16T14:05:51Z</time>
      </trkpt>
      <trkpt lat="59.986374992877" lon="15.807149223983">
        <ele>9.2</ele>
        <time>2014-11-16T14:05:52Z</time>
      </trkpt>
      <trkpt lat="59.98645009473" lon="15.806938167661">
        <ele>9.8</ele>
        <time>2014-11-16T14:05:57Z</time>
      </trkpt>
      <trkpt lat="59.986496195197" lon="15.806820904836">
        <ele>10</ele>
        <time>2014-11-16T14:06:00Z</time>
      </trkpt>
      <trkpt lat="59.9865288008" lon="15.806732727215">
        <ele>10.2</ele>
        <time>2014-11-16T14:06:02Z</time>
      </trkpt>
      <trkpt lat="59.986601639539" lon="15.806494429708">
        <ele>10.4</ele>
        <time>2014-11-16T14:06:07Z</time>
      </trkpt>
      <trkpt lat="59.986590491608" lon="15.806454448029">
        <ele>10.4</ele>
        <time>2014-11-16T14:06:08Z</time>
      </trkpt>
      <trkpt lat="59.986550426111" lon="15.806359313428">
        <ele>10.6</ele>
        <time>2014-11-16T14:06:10Z</time>
      </trkpt>
      <trkpt lat="59.986482281238" lon="15.806249929592">
        <ele>11.4</ele>
        <time>2014-11-16T14:06:13Z</time>
      </trkpt>
      <trkpt lat="59.986425619572" lon="15.806136857718">
        <ele>12</ele>
        <time>2014-11-16T14:06:16Z</time>
      </trkpt>
      <trkpt lat="59.986286731437" lon="15.805902667344">
        <ele>11.8</ele>
        <time>2014-11-16T14:06:22Z</time>
      </trkpt>
      <trkpt lat="59.986176593229" lon="15.805631680414">
        <ele>11.6</ele>
        <time>2014-11-16T14:06:28Z</time>
      </trkpt>
      <trkpt lat="59.986217413098" lon="15.805429425091">
        <ele>11.4</ele>
        <time>2014-11-16T14:06:32Z</time>
      </trkpt>
      <trkpt lat="59.986347332597" lon="15.805141841993">
        <ele>11</ele>
        <time>2014-11-16T14:06:38Z</time>
      </trkpt>
      <trkpt lat="59.9864561297" lon="15.804899353534">
        <ele>11.4</ele>
        <time>2014-11-16T14:06:43Z</time>
      </trkpt>
      <trkpt lat="59.986581858248" lon="15.80458285287">
        <ele>10.4</ele>
        <time>2014-11-16T14:06:50Z</time>
      </trkpt>
      <trkpt lat="59.986698031425" lon="15.804354697466">
        <ele>10.6</ele>
        <time>2014-11-16T14:06:56Z</time>
      </trkpt>
      <trkpt lat="59.986771959811" lon="15.804234333336">
        <ele>10.2</ele>
        <time>2014-11-16T14:06:59Z</time>
      </trkpt>
      <trkpt lat="59.98684043996" lon="15.804128888994">
        <ele>9.8</ele>
        <time>2014-11-16T14:07:02Z</time>
      </trkpt>
      <trkpt lat="59.986978657544" lon="15.803942224011">
        <ele>9.8</ele>
        <time>2014-11-16T14:07:08Z</time>
      </trkpt>
      <trkpt lat="59.987122323364" lon="15.803811131045">
        <ele>10.4</ele>
        <time>2014-11-16T14:07:13Z</time>
      </trkpt>
      <trkpt lat="59.987257188186" lon="15.803728234023">
        <ele>10</ele>
        <time>2014-11-16T14:07:18Z</time>
      </trkpt>
      <trkpt lat="59.987394064665" lon="15.803641816601">
        <ele>9.8</ele>
        <time>2014-11-16T14:07:24Z</time>
      </trkpt>
      <trkpt lat="59.987541418523" lon="15.803478956223">
        <ele>10.4</ele>
        <time>2014-11-16T14:07:30Z</time>
      </trkpt>
      <trkpt lat="59.987652227283" lon="15.803297571838">
        <ele>10.2</ele>
        <time>2014-11-16T14:07:35Z</time>
      </trkpt>
      <trkpt lat="59.987742751837" lon="15.803179470822">
        <ele>10.2</ele>
        <time>2014-11-16T14:07:39Z</time>
      </trkpt>
      <trkpt lat="59.987871330231" lon="15.803149463609">
        <ele>10</ele>
        <time>2014-11-16T14:07:44Z</time>
      </trkpt>
      <trkpt lat="59.987997142598" lon="15.803292458877">
        <ele>9.6</ele>
        <time>2014-11-16T14:07:49Z</time>
      </trkpt>
      <trkpt lat="59.988113399595" lon="15.803460180759">
        <ele>9.2</ele>
        <time>2014-11-16T14:07:54Z</time>
      </trkpt>
      <trkpt lat="59.988199984655" lon="15.803385581821">
        <ele>9</ele>
        <time>2014-11-16T14:07:58Z</time>
      </trkpt>
      <trkpt lat="59.988237284124" lon="15.803246190771">
        <ele>9</ele>
        <time>2014-11-16T14:08:01Z</time>
      </trkpt>
      <trkpt lat="59.988224543631" lon="15.803141668439">
        <ele>9</ele>
        <time>2014-11-16T14:08:03Z</time>
      </trkpt>
      <trkpt lat="59.98813980259" lon="15.802952237427">
        <ele>9</ele>
        <time>2014-11-16T14:08:08Z</time>
      </trkpt>
      <trkpt lat="59.988118847832" lon="15.802917787805">
        <ele>9</ele>
        <time>2014-11-16T14:08:09Z</time>
      </trkpt>
      <trkpt lat="59.988054474816" lon="15.802729446441">
        <ele>9.4</ele>
        <time>2014-11-16T14:08:14Z</time>
      </trkpt>
      <trkpt lat="59.988063191995" lon="15.802682843059">
        <ele>9.2</ele>
        <time>2014-11-16T14:08:15Z</time>
      </trkpt>
      <trkpt lat="59.988082973287" lon="15.802552672103">
        <ele>9.4</ele>
        <time>2014-11-16T14:08:18Z</time>
      </trkpt>
      <trkpt lat="59.988069897518" lon="15.802317643538">
        <ele>9.4</ele>
        <time>2014-11-16T14:08:23Z</time>
      </trkpt>
      <trkpt lat="59.988010050729" lon="15.802140785381">
        <ele>9.4</ele>
        <time>2014-11-16T14:08:28Z</time>
      </trkpt>
      <trkpt lat="59.987933021039" lon="15.80192964524">
        <ele>9.8</ele>
        <time>2014-11-16T14:08:33Z</time>
      </trkpt>
      <trkpt lat="59.987858254462" lon="15.801698975265">
        <ele>9.6</ele>
        <time>2014-11-16T14:08:38Z</time>
      </trkpt>
      <trkpt lat="59.987793797627" lon="15.801511136815">
        <ele>10.2</ele>
        <time>2014-11-16T14:08:42Z</time>
      </trkpt>
      <trkpt lat="59.987768149003" lon="15.80144315958">
        <ele>10.8</ele>
        <time>2014-11-16T14:08:44Z</time>
      </trkpt>
      <trkpt lat="59.987678295001" lon="15.801268732175">
        <ele>11</ele>
        <time>2014-11-16T14:08:48Z</time>
      </trkpt>
      <trkpt lat="59.987639319152" lon="15.801186421886">
        <ele>11.4</ele>
        <time>2014-11-16T14:08:50Z</time>
      </trkpt>
      <trkpt lat="59.987597828731" lon="15.801071003079">
        <ele>11.4</ele>
        <time>2014-11-16T14:08:53Z</time>
      </trkpt>
      <trkpt lat="59.987598247826" lon="15.801026746631">
        <ele>11.4</ele>
        <time>2014-11-16T14:08:54Z</time>
      </trkpt>
      <trkpt lat="59.987573437393" lon="15.800927504897">
        <ele>11.6</ele>
        <time>2014-11-16T14:08:56Z</time>
      </trkpt>
      <trkpt lat="59.987547118217" lon="15.800764895976">
        <ele>11.6</ele>
        <time>2014-11-16T14:08:59Z</time>
      </trkpt>
      <trkpt lat="59.987544855103" lon="15.800726506859">
        <ele>11.4</ele>
        <time>2014-11-16T14:09:00Z</time>
      </trkpt>
      <trkpt lat="59.987583579496" lon="15.800588708371">
        <ele>10.8</ele>
        <time>2014-11-16T14:09:03Z</time>
      </trkpt>
      <trkpt lat="59.987585339695" lon="15.800550905988">
        <ele>10.6</ele>
        <time>2014-11-16T14:09:04Z</time>
      </trkpt>
      <trkpt lat="59.98759011738" lon="15.800483850762">
        <ele>10.2</ele>
        <time>2014-11-16T14:09:05Z</time>
      </trkpt>
      <trkpt lat="59.987585423514" lon="15.800385698676">
        <ele>10</ele>
        <time>2014-11-16T14:09:07Z</time>
      </trkpt>
      <trkpt lat="59.987570084631" lon="15.800295174122">
        <ele>10.2</ele>
        <time>2014-11-16T14:09:09Z</time>
      </trkpt>
      <trkpt lat="59.987530522048" lon="15.800177492201">
        <ele>11.4</ele>
        <time>2014-11-16T14:09:12Z</time>
      </trkpt>
      <trkpt lat="59.987509064376" lon="15.800083950162">
        <ele>11.8</ele>
        <time>2014-11-16T14:09:14Z</time>
      </trkpt>
      <trkpt lat="59.987484421581" lon="15.7999110315">
        <ele>12.4</ele>
        <time>2014-11-16T14:09:17Z</time>
      </trkpt>
      <trkpt lat="59.987483583391" lon="15.799873480573">
        <ele>12.4</ele>
        <time>2014-11-16T14:09:18Z</time>
      </trkpt>
      <trkpt lat="59.987471764907" lon="15.799696454778">
        <ele>13</ele>
        <time>2014-11-16T14:09:21Z</time>
      </trkpt>
      <trkpt lat="59.987481236458" lon="15.799650941044">
        <ele>13.4</ele>
        <time>2014-11-16T14:09:22Z</time>
      </trkpt>
      <trkpt lat="59.98748014681" lon="15.799613809213">
        <ele>13.6</ele>
        <time>2014-11-16T14:09:23Z</time>
      </trkpt>
      <trkpt lat="59.987474530935" lon="15.799584556371">
        <ele>13.8</ele>
        <time>2014-11-16T14:09:24Z</time>
      </trkpt>
      <trkpt lat="59.987456006929" lon="15.799434939399">
        <ele>14.6</ele>
        <time>2014-11-16T14:09:27Z</time>
      </trkpt>
      <trkpt lat="59.987470172346" lon="15.79932404682">
        <ele>15</ele>
        <time>2014-11-16T14:09:29Z</time>
      </trkpt>
      <trkpt lat="59.98749406077" lon="15.799215417355">
        <ele>15.2</ele>
        <time>2014-11-16T14:09:31Z</time>
      </trkpt>
      <trkpt lat="59.987519457936" lon="15.799103938043">
        <ele>15.8</ele>
        <time>2014-11-16T14:09:33Z</time>
      </trkpt>
      <trkpt lat="59.987546782941" lon="15.799054233357">
        <ele>16.2</ele>
        <time>2014-11-16T14:09:34Z</time>
      </trkpt>
      <trkpt lat="59.987602354959" lon="15.798893719912">
        <ele>17</ele>
        <time>2014-11-16T14:09:37Z</time>
      </trkpt>
      <trkpt lat="59.987627165392" lon="15.798790790141">
        <ele>17.4</ele>
        <time>2014-11-16T14:09:39Z</time>
      </trkpt>
      <trkpt lat="59.987696819007" lon="15.798618793488">
        <ele>17.8</ele>
        <time>2014-11-16T14:09:43Z</time>
      </trkpt>
      <trkpt lat="59.987748451531" lon="15.798524916172">
        <ele>18</ele>
        <time>2014-11-16T14:09:45Z</time>
      </trkpt>
      <trkpt lat="59.987799832597" lon="15.798390470445">
        <ele>17.6</ele>
        <time>2014-11-16T14:09:48Z</time>
      </trkpt>
      <trkpt lat="59.987808801234" lon="15.798278655857">
        <ele>17.8</ele>
        <time>2014-11-16T14:09:51Z</time>
      </trkpt>
      <trkpt lat="59.987839730456" lon="15.798150999472">
        <ele>18.2</ele>
        <time>2014-11-16T14:09:54Z</time>
      </trkpt>
      <trkpt lat="59.987839646637" lon="15.798109760508">
        <ele>18.2</ele>
        <time>2014-11-16T14:09:55Z</time>
      </trkpt>
      <trkpt lat="59.987843586132" lon="15.797988474369">
        <ele>18.6</ele>
        <time>2014-11-16T14:09:58Z</time>
      </trkpt>
      <trkpt lat="59.987849034369" lon="15.797940194607">
        <ele>19</ele>
        <time>2014-11-16T14:09:59Z</time>
      </trkpt>
      <trkpt lat="59.987848363817" lon="15.797888059169">
        <ele>19.2</ele>
        <time>2014-11-16T14:10:00Z</time>
      </trkpt>
      <trkpt lat="59.98788356781" lon="15.79773559235">
        <ele>19.8</ele>
        <time>2014-11-16T14:10:03Z</time>
      </trkpt>
      <trkpt lat="59.987948779017" lon="15.79753048718">
        <ele>20.2</ele>
        <time>2014-11-16T14:10:08Z</time>
      </trkpt>
      <trkpt lat="59.988000746816" lon="15.7973711472">
        <ele>20</ele>
        <time>2014-11-16T14:10:11Z</time>
      </trkpt>
      <trkpt lat="59.988020192832" lon="15.797339379787">
        <ele>19.8</ele>
        <time>2014-11-16T14:10:12Z</time>
      </trkpt>
      <trkpt lat="59.98808615841" lon="15.797136370093">
        <ele>19.4</ele>
        <time>2014-11-16T14:10:16Z</time>
      </trkpt>
      <trkpt lat="59.988027401268" lon="15.796942748129">
        <ele>18.6</ele>
        <time>2014-11-16T14:10:20Z</time>
      </trkpt>
      <trkpt lat="59.987979205325" lon="15.796805871651">
        <ele>18.6</ele>
        <time>2014-11-16T14:10:23Z</time>
      </trkpt>
      <trkpt lat="59.987937882543" lon="15.79671157524">
        <ele>18.6</ele>
        <time>2014-11-16T14:10:26Z</time>
      </trkpt>
      <trkpt lat="59.987831516191" lon="15.796529939398">
        <ele>19.4</ele>
        <time>2014-11-16T14:10:32Z</time>
      </trkpt>
      <trkpt lat="59.987736046314" lon="15.79634713009">
        <ele>20.4</ele>
        <time>2014-11-16T14:10:37Z</time>
      </trkpt>
      <trkpt lat="59.987716600299" lon="15.796317374334">
        <ele>20.4</ele>
        <time>2014-11-16T14:10:38Z</time>
      </trkpt>
      <trkpt lat="59.987636469305" lon="15.796175384894">
        <ele>21.4</ele>
        <time>2014-11-16T14:10:43Z</time>
      </trkpt>
      <trkpt lat="59.987624231726" lon="15.796150155365">
        <ele>21.6</ele>
        <time>2014-11-16T14:10:44Z</time>
      </trkpt>
      <trkpt lat="59.98750185594" lon="15.795908002183">
        <ele>22.2</ele>
        <time>2014-11-16T14:10:50Z</time>
      </trkpt>
      <trkpt lat="59.987428095192" lon="15.795767270029">
        <ele>22.6</ele>
        <time>2014-11-16T14:10:54Z</time>
      </trkpt>
      <trkpt lat="59.987390544266" lon="15.795701807365">
        <ele>23.2</ele>
        <time>2014-11-16T14:10:56Z</time>
      </trkpt>
      <trkpt lat="59.987321645021" lon="15.795577168465">
        <ele>23.8</ele>
        <time>2014-11-16T14:11:00Z</time>
      </trkpt>
      <trkpt lat="59.987300354987" lon="15.795527463779">
        <ele>24</ele>
        <time>2014-11-16T14:11:01Z</time>
      </trkpt>
      <trkpt lat="59.987177811563" lon="15.79534557648">
        <ele>24.8</ele>
        <time>2014-11-16T14:11:06Z</time>
      </trkpt>
      <trkpt lat="59.987136153504" lon="15.795290339738">
        <ele>24.8</ele>
        <time>2014-11-16T14:11:08Z</time>
      </trkpt>
      <trkpt lat="59.987027188763" lon="15.795176932588">
        <ele>25.4</ele>
        <time>2014-11-16T14:11:12Z</time>
      </trkpt>
      <trkpt lat="59.986870950088" lon="15.795120773837">
        <ele>25.6</ele>
        <time>2014-11-16T14:11:17Z</time>
      </trkpt>
      <trkpt lat="59.986692164093" lon="15.795132759959">
        <ele>25.4</ele>
        <time>2014-11-16T14:11:23Z</time>
      </trkpt>
      <trkpt lat="59.986553862691" lon="15.795180536807">
        <ele>24.8</ele>
        <time>2014-11-16T14:11:28Z</time>
      </trkpt>
      <trkpt lat="59.986430732533" lon="15.795263936743">
        <ele>24.6</ele>
        <time>2014-11-16T14:11:32Z</time>
      </trkpt>
      <trkpt lat="59.986288575456" lon="15.795387234539">
        <ele>24</ele>
        <time>2014-11-16T14:11:37Z</time>
      </trkpt>
      <trkpt lat="59.986133426428" lon="15.795555710793">
        <ele>24.2</ele>
        <time>2014-11-16T14:11:43Z</time>
      </trkpt>
      <trkpt lat="59.986005267128" lon="15.795707087964">
        <ele>23.4</ele>
        <time>2014-11-16T14:11:48Z</time>
      </trkpt>
      <trkpt lat="59.98595321551" lon="15.795764336362">
        <ele>23.6</ele>
        <time>2014-11-16T14:11:50Z</time>
      </trkpt>
      <trkpt lat="59.985827151686" lon="15.795875145122">
        <ele>23.4</ele>
        <time>2014-11-16T14:11:55Z</time>
      </trkpt>
      <trkpt lat="59.98564937152" lon="15.795977823436">
        <ele>22.8</ele>
        <time>2014-11-16T14:12:01Z</time>
      </trkpt>
      <trkpt lat="59.985506962985" lon="15.796098941937">
        <ele>22.8</ele>
        <time>2014-11-16T14:12:06Z</time>
      </trkpt>
      <trkpt lat="59.985382072628" lon="15.796222994104">
        <ele>22.8</ele>
        <time>2014-11-16T14:12:11Z</time>
      </trkpt>
      <trkpt lat="59.985200855881" lon="15.796357691288">
        <ele>22.6</ele>
        <time>2014-11-16T14:12:17Z</time>
      </trkpt>
      <trkpt lat="59.98504595831" lon="15.796461710706">
        <ele>22.8</ele>
        <time>2014-11-16T14:12:23Z</time>
      </trkpt>
      <trkpt lat="59.984855437651" lon="15.796614093706">
        <ele>23</ele>
        <time>2014-11-16T14:12:29Z</time>
      </trkpt>
      <trkpt lat="59.984710849822" lon="15.796838728711">
        <ele>23.2</ele>
        <time>2014-11-16T14:12:35Z</time>
      </trkpt>
      <trkpt lat="59.98469190672" lon="15.796884326264">
        <ele>23</ele>
        <time>2014-11-16T14:12:36Z</time>
      </trkpt>
      <trkpt lat="59.98459149152" lon="15.797191690654">
        <ele>23.4</ele>
        <time>2014-11-16T14:12:42Z</time>
      </trkpt>
      <trkpt lat="59.984491160139" lon="15.797498216853">
        <ele>22.8</ele>
        <time>2014-11-16T14:12:48Z</time>
      </trkpt>
      <trkpt lat="59.984472133219" lon="15.79755814746">
        <ele>22.8</ele>
        <time>2014-11-16T14:12:49Z</time>
      </trkpt>
      <trkpt lat="59.984441958368" lon="15.797660155222">
        <ele>22.4</ele>
        <time>2014-11-16T14:12:51Z</time>
      </trkpt>
      <trkpt lat="59.98431799002" lon="15.797978918999">
        <ele>21.6</ele>
        <time>2014-11-16T14:12:58Z</time>
      </trkpt>
      <trkpt lat="59.984293933958" lon="15.797976572067">
        <ele>21.4</ele>
        <time>2014-11-16T14:12:59Z</time>
      </trkpt>
      <trkpt lat="59.984215479344" lon="15.79798319377">
        <ele>21</ele>
        <time>2014-11-16T14:13:02Z</time>
      </trkpt>
      <trkpt lat="59.98404180631" lon="15.797879844904">
        <ele>21.6</ele>
        <time>2014-11-16T14:13:09Z</time>
      </trkpt>
      <trkpt lat="59.983861846849" lon="15.797730311751">
        <ele>22.2</ele>
        <time>2014-11-16T14:13:16Z</time>
      </trkpt>
      <trkpt lat="59.98380552046" lon="15.797676164657">
        <ele>22.4</ele>
        <time>2014-11-16T14:13:18Z</time>
      </trkpt>
      <trkpt lat="59.983692700043" lon="15.797563092783">
        <ele>22.4</ele>
        <time>2014-11-16T14:13:23Z</time>
      </trkpt>
      <trkpt lat="59.983519781381" lon="15.797382295132">
        <ele>23</ele>
        <time>2014-11-16T14:13:30Z</time>
      </trkpt>
      <trkpt lat="59.983499580994" lon="15.797357484698">
        <ele>23</ele>
        <time>2014-11-16T14:13:31Z</time>
      </trkpt>
      <trkpt lat="59.983360273764" lon="15.797186410055">
        <ele>23.2</ele>
        <time>2014-11-16T14:13:37Z</time>
      </trkpt>
      <trkpt lat="59.983322890475" lon="15.797137795016">
        <ele>23.4</ele>
        <time>2014-11-16T14:13:39Z</time>
      </trkpt>
      <trkpt lat="59.983191210777" lon="15.796950124204">
        <ele>24.2</ele>
        <time>2014-11-16T14:13:45Z</time>
      </trkpt>
      <trkpt lat="59.983152654022" lon="15.796902934089">
        <ele>24.6</ele>
        <time>2014-11-16T14:13:47Z</time>
      </trkpt>
      <trkpt lat="59.983038827777" lon="15.796749964356">
        <ele>25.6</ele>
        <time>2014-11-16T14:13:52Z</time>
      </trkpt>
      <trkpt lat="59.982911674306" lon="15.796573692933">
        <ele>26.2</ele>
        <time>2014-11-16T14:13:58Z</time>
      </trkpt>
      <trkpt lat="59.982827687636" lon="15.796442264691">
        <ele>26.8</ele>
        <time>2014-11-16T14:14:02Z</time>
      </trkpt>
      <trkpt lat="59.982764739543" lon="15.796327516437">
        <ele>27</ele>
        <time>2014-11-16T14:14:05Z</time>
      </trkpt>
      <trkpt lat="59.982619229704" lon="15.796079076827">
        <ele>27.8</ele>
        <time>2014-11-16T14:14:12Z</time>
      </trkpt>
      <trkpt lat="59.982556113973" lon="15.795970531181">
        <ele>28</ele>
        <time>2014-11-16T14:14:15Z</time>
      </trkpt>
      <trkpt lat="59.982384368777" lon="15.795771880075">
        <ele>28.8</ele>
        <time>2014-11-16T14:14:22Z</time>
      </trkpt>
      <trkpt lat="59.982259562239" lon="15.795810939744">
        <ele>29.2</ele>
        <time>2014-11-16T14:14:27Z</time>
      </trkpt>
      <trkpt lat="59.982149004936" lon="15.796032389626">
        <ele>29.4</ele>
        <time>2014-11-16T14:14:32Z</time>
      </trkpt>
      <trkpt lat="59.982012547553" lon="15.796295665205">
        <ele>29.4</ele>
        <time>2014-11-16T14:14:39Z</time>
      </trkpt>
      <trkpt lat="59.98198245652" lon="15.796349644661">
        <ele>29.2</ele>
        <time>2014-11-16T14:14:40Z</time>
      </trkpt>
      <trkpt lat="59.981875335798" lon="15.796546367928">
        <ele>28.8</ele>
        <time>2014-11-16T14:14:45Z</time>
      </trkpt>
      <trkpt lat="59.981767544523" lon="15.796835962683">
        <ele>28</ele>
        <time>2014-11-16T14:14:51Z</time>
      </trkpt>
      <trkpt lat="59.981748433784" lon="15.796901509166">
        <ele>27.8</ele>
        <time>2014-11-16T14:14:52Z</time>
      </trkpt>
      <trkpt lat="59.981704764068" lon="15.797064285725">
        <ele>27.8</ele>
        <time>2014-11-16T14:14:55Z</time>
      </trkpt>
      <trkpt lat="59.981604265049" lon="15.797368213534">
        <ele>26.6</ele>
        <time>2014-11-16T14:15:01Z</time>
      </trkpt>
      <trkpt lat="59.981558667496" lon="15.797393526882">
        <ele>26.2</ele>
        <time>2014-11-16T14:15:03Z</time>
      </trkpt>
      <trkpt lat="59.981487169862" lon="15.797374919057">
        <ele>25.4</ele>
        <time>2014-11-16T14:15:05Z</time>
      </trkpt>
      <trkpt lat="59.981456324458" lon="15.797363519669">
        <ele>25.2</ele>
        <time>2014-11-16T14:15:06Z</time>
      </trkpt>
      <trkpt lat="59.981403267011" lon="15.797363352031">
        <ele>24.4</ele>
        <time>2014-11-16T14:15:08Z</time>
      </trkpt>
      <trkpt lat="59.981316514313" lon="15.797453960404">
        <ele>23.6</ele>
        <time>2014-11-16T14:15:11Z</time>
      </trkpt>
      <trkpt lat="59.981293631718" lon="15.797496037558">
        <ele>23.4</ele>
        <time>2014-11-16T14:15:12Z</time>
      </trkpt>
      <trkpt lat="59.981240825728" lon="15.79753476195">
        <ele>23</ele>
        <time>2014-11-16T14:15:14Z</time>
      </trkpt>
      <trkpt lat="59.981187349185" lon="15.797491846606">
        <ele>22.4</ele>
        <time>2014-11-16T14:15:16Z</time>
      </trkpt>
      <trkpt lat="59.981161700562" lon="15.797470556572">
        <ele>22.2</ele>
        <time>2014-11-16T14:15:17Z</time>
      </trkpt>
      <trkpt lat="59.981044018641" lon="15.797338793054">
        <ele>22.4</ele>
        <time>2014-11-16T14:15:22Z</time>
      </trkpt>
      <trkpt lat="59.980892054737" lon="15.797073086724">
        <ele>22.8</ele>
        <time>2014-11-16T14:15:29Z</time>
      </trkpt>
      <trkpt lat="59.980745706707" lon="15.796825150028">
        <ele>23.2</ele>
        <time>2014-11-16T14:15:36Z</time>
      </trkpt>
      <trkpt lat="59.980636574328" lon="15.796633036807">
        <ele>23.8</ele>
        <time>2014-11-16T14:15:41Z</time>
      </trkpt>
      <trkpt lat="59.980475977063" lon="15.796367581934">
        <ele>23.4</ele>
        <time>2014-11-16T14:15:48Z</time>
      </trkpt>
      <trkpt lat="59.980361815542" lon="15.796095672995">
        <ele>23.4</ele>
        <time>2014-11-16T14:15:54Z</time>
      </trkpt>
      <trkpt lat="59.980315044522" lon="15.795819573104">
        <ele>23.6</ele>
        <time>2014-11-16T14:15:59Z</time>
      </trkpt>
      <trkpt lat="59.98026852496" lon="15.795471305028">
        <ele>23.6</ele>
        <time>2014-11-16T14:16:05Z</time>
      </trkpt>
      <trkpt lat="59.980232315138" lon="15.79525815323">
        <ele>23.6</ele>
        <time>2014-11-16T14:16:09Z</time>
      </trkpt>
      <trkpt lat="59.980172887444" lon="15.794890606776">
        <ele>24.4</ele>
        <time>2014-11-16T14:16:16Z</time>
      </trkpt>
      <trkpt lat="59.98016199097" lon="15.794827742502">
        <ele>24.4</ele>
        <time>2014-11-16T14:16:17Z</time>
      </trkpt>
      <trkpt lat="59.980094181374" lon="15.794438067824">
        <ele>24.6</ele>
        <time>2014-11-16T14:16:24Z</time>
      </trkpt>
      <trkpt lat="59.980060318485" lon="15.794123578817">
        <ele>25.2</ele>
        <time>2014-11-16T14:16:30Z</time>
      </trkpt>
      <trkpt lat="59.980053696781" lon="15.794021319598">
        <ele>25.4</ele>
        <time>2014-11-16T14:16:32Z</time>
      </trkpt>
      <trkpt lat="59.980036178604" lon="15.793920820579">
        <ele>25.6</ele>
        <time>2014-11-16T14:16:35Z</time>
      </trkpt>
      <trkpt lat="59.980035256594" lon="15.793909253553">
        <ele>25.8</ele>
        <time>2014-11-16T14:16:36Z</time>
      </trkpt>
      <trkpt lat="59.980063000694" lon="15.793829206377">
        <ele>26.2</ele>
        <time>2014-11-16T14:16:39Z</time>
      </trkpt>
      <trkpt lat="59.980089236051" lon="15.793779417872">
        <ele>26.4</ele>
        <time>2014-11-16T14:16:40Z</time>
      </trkpt>
      <trkpt lat="59.980217311531" lon="15.793499713764">
        <ele>26.8</ele>
        <time>2014-11-16T14:16:47Z</time>
      </trkpt>
      <trkpt lat="59.980327868834" lon="15.793343894184">
        <ele>26.8</ele>
        <time>2014-11-16T14:16:52Z</time>
      </trkpt>
      <trkpt lat="59.980469858274" lon="15.793090090156">
        <ele>26.2</ele>
        <time>2014-11-16T14:16:58Z</time>
      </trkpt>
      <trkpt lat="59.980531465262" lon="15.792871993035">
        <ele>25.4</ele>
        <time>2014-11-16T14:17:02Z</time>
      </trkpt>
      <trkpt lat="59.980510510504" lon="15.792601760477">
        <ele>24.8</ele>
        <time>2014-11-16T14:17:07Z</time>
      </trkpt>
      <trkpt lat="59.980399366468" lon="15.792316189036">
        <ele>25.4</ele>
        <time>2014-11-16T14:17:13Z</time>
      </trkpt>
      <trkpt lat="59.980376400054" lon="15.792274111882">
        <ele>25.4</ele>
        <time>2014-11-16T14:17:14Z</time>
      </trkpt>
      <trkpt lat="59.980226783082" lon="15.792017625645">
        <ele>26.2</ele>
        <time>2014-11-16T14:17:21Z</time>
      </trkpt>
      <trkpt lat="59.980202475563" lon="15.791972028092">
        <ele>26.2</ele>
        <time>2014-11-16T14:17:22Z</time>
      </trkpt>
      <trkpt lat="59.980186549947" lon="15.791875720024">
        <ele>26.2</ele>
        <time>2014-11-16T14:17:24Z</time>
      </trkpt>
      <trkpt lat="59.980205995962" lon="15.791778406128">
        <ele>26.4</ele>
        <time>2014-11-16T14:17:26Z</time>
      </trkpt>
      <trkpt lat="59.980231896043" lon="15.791761474684">
        <ele>26.4</ele>
        <time>2014-11-16T14:17:27Z</time>
      </trkpt>
      <trkpt lat="59.980295933783" lon="15.791709590703">
        <ele>26.2</ele>
        <time>2014-11-16T14:17:29Z</time>
      </trkpt>
      <trkpt lat="59.980446891859" lon="15.791597273201">
        <ele>24</ele>
        <time>2014-11-16T14:17:34Z</time>
      </trkpt>
      <trkpt lat="59.980478575453" lon="15.791554776952">
        <ele>23.6</ele>
        <time>2014-11-16T14:17:35Z</time>
      </trkpt>
      <trkpt lat="59.980546301231" lon="15.791424438357">
        <ele>22.8</ele>
        <time>2014-11-16T14:17:38Z</time>
      </trkpt>
      <trkpt lat="59.980572620407" lon="15.791271133348">
        <ele>22.4</ele>
        <time>2014-11-16T14:17:41Z</time>
      </trkpt>
      <trkpt lat="59.980543870479" lon="15.79091867432">
        <ele>22</ele>
        <time>2014-11-16T14:17:47Z</time>
      </trkpt>
      <trkpt lat="59.980476144701" lon="15.790572585538">
        <ele>22.2</ele>
        <time>2014-11-16T14:17:53Z</time>
      </trkpt>
      <trkpt lat="59.980457453057" lon="15.790467308834">
        <ele>22.2</ele>
        <time>2014-11-16T14:17:55Z</time>
      </trkpt>
      <trkpt lat="59.980389894918" lon="15.790136475116">
        <ele>22.2</ele>
        <time>2014-11-16T14:18:01Z</time>
      </trkpt>
      <trkpt lat="59.980255113915" lon="15.789995491505">
        <ele>22.4</ele>
        <time>2014-11-16T14:18:06Z</time>
      </trkpt>
      <trkpt lat="59.980122428387" lon="15.789908403531">
        <ele>21.6</ele>
        <time>2014-11-16T14:18:11Z</time>
      </trkpt>
      <trkpt lat="59.980006925762" lon="15.789788458496">
        <ele>20.8</ele>
        <time>2014-11-16T14:18:16Z</time>
      </trkpt>
      <trkpt lat="59.97989804484" lon="15.789630459622">
        <ele>21</ele>
        <time>2014-11-16T14:18:21Z</time>
      </trkpt>
      <trkpt lat="59.97974046506" lon="15.789364082739">
        <ele>21.4</ele>
        <time>2014-11-16T14:18:29Z</time>
      </trkpt>
      <trkpt lat="59.979644492269" lon="15.789041044191">
        <ele>21.4</ele>
        <time>2014-11-16T14:18:36Z</time>
      </trkpt>
      <trkpt lat="59.979637283832" lon="15.788981281221">
        <ele>21.6</ele>
        <time>2014-11-16T14:18:37Z</time>
      </trkpt>
      <trkpt lat="59.979616161436" lon="15.788768045604">
        <ele>21.8</ele>
        <time>2014-11-16T14:18:41Z</time>
      </trkpt>
      <trkpt lat="59.979618759826" lon="15.788718927652">
        <ele>22</ele>
        <time>2014-11-16T14:18:42Z</time>
      </trkpt>
      <trkpt lat="59.979668967426" lon="15.788527317345">
        <ele>22</ele>
        <time>2014-11-16T14:18:46Z</time>
      </trkpt>
      <trkpt lat="59.979723617435" lon="15.788372587413">
        <ele>22.8</ele>
        <time>2014-11-16T14:18:50Z</time>
      </trkpt>
      <trkpt lat="59.979787655175" lon="15.788235878572">
        <ele>23.6</ele>
        <time>2014-11-16T14:18:55Z</time>
      </trkpt>
      <trkpt lat="59.979804418981" lon="15.788192963228">
        <ele>23.8</ele>
        <time>2014-11-16T14:18:56Z</time>
      </trkpt>
      <trkpt lat="59.979823948815" lon="15.788059774786">
        <ele>24.6</ele>
        <time>2014-11-16T14:18:59Z</time>
      </trkpt>
      <trkpt lat="59.979823864996" lon="15.788006298244">
        <ele>25.2</ele>
        <time>2014-11-16T14:19:00Z</time>
      </trkpt>
      <trkpt lat="59.979806346819" lon="15.787905128673">
        <ele>26.4</ele>
        <time>2014-11-16T14:19:02Z</time>
      </trkpt>
      <trkpt lat="59.979777596891" lon="15.787679068744">
        <ele>27</ele>
        <time>2014-11-16T14:19:06Z</time>
      </trkpt>
      <trkpt lat="59.979710290208" lon="15.787504892796">
        <ele>25.4</ele>
        <time>2014-11-16T14:19:10Z</time>
      </trkpt>
      <trkpt lat="59.979687575251" lon="15.787441190332">
        <ele>25</ele>
        <time>2014-11-16T14:19:11Z</time>
      </trkpt>
      <trkpt lat="59.979670140892" lon="15.787388719618">
        <ele>24.4</ele>
        <time>2014-11-16T14:19:12Z</time>
      </trkpt>
      <trkpt lat="59.979624124244" lon="15.787200126797">
        <ele>23</ele>
        <time>2014-11-16T14:19:16Z</time>
      </trkpt>
      <trkpt lat="59.979618759826" lon="15.787137011066">
        <ele>23.2</ele>
        <time>2014-11-16T14:19:17Z</time>
      </trkpt>
      <trkpt lat="59.979620184749" lon="15.787094347179">
        <ele>23</ele>
        <time>2014-11-16T14:19:18Z</time>
      </trkpt>
      <trkpt lat="59.979607947171" lon="15.786831323057">
        <ele>23.2</ele>
        <time>2014-11-16T14:19:22Z</time>
      </trkpt>
      <trkpt lat="59.979649018496" lon="15.786622865126">
        <ele>23</ele>
        <time>2014-11-16T14:19:26Z</time>
      </trkpt>
      <trkpt lat="59.979736357927" lon="15.786300329491">
        <ele>22.8</ele>
        <time>2014-11-16T14:19:32Z</time>
      </trkpt>
      <trkpt lat="59.979799641296" lon="15.785948708653">
        <ele>23.2</ele>
        <time>2014-11-16T14:19:38Z</time>
      </trkpt>
      <trkpt lat="59.979781452566" lon="15.785657186061">
        <ele>23.4</ele>
        <time>2014-11-16T14:19:43Z</time>
      </trkpt>
      <trkpt lat="59.979736609384" lon="15.78533523716">
        <ele>23.6</ele>
        <time>2014-11-16T14:19:49Z</time>
      </trkpt>
      <trkpt lat="59.979708697647" lon="15.785011192784">
        <ele>24.2</ele>
        <time>2014-11-16T14:19:55Z</time>
      </trkpt>
      <trkpt lat="59.97969972901" lon="15.784912621602">
        <ele>24.6</ele>
        <time>2014-11-16T14:19:57Z</time>
      </trkpt>
      <trkpt lat="59.979677097872" lon="15.784631660208">
        <ele>25.4</ele>
        <time>2014-11-16T14:20:03Z</time>
      </trkpt>
      <trkpt lat="59.979670559987" lon="15.784565443173">
        <ele>25.8</ele>
        <time>2014-11-16T14:20:04Z</time>
      </trkpt>
      <trkpt lat="59.979652371258" lon="15.784421944991">
        <ele>26.6</ele>
        <time>2014-11-16T14:20:07Z</time>
      </trkpt>
      <trkpt lat="59.97963225469" lon="15.784287163988">
        <ele>27.6</ele>
        <time>2014-11-16T14:20:10Z</time>
      </trkpt>
      <trkpt lat="59.979622615501" lon="15.784185826778">
        <ele>28.2</ele>
        <time>2014-11-16T14:20:12Z</time>
      </trkpt>
      <trkpt lat="59.979610042647" lon="15.784105695784">
        <ele>28.8</ele>
        <time>2014-11-16T14:20:14Z</time>
      </trkpt>
      <trkpt lat="59.979561846703" lon="15.783885251731">
        <ele>29.6</ele>
        <time>2014-11-16T14:20:19Z</time>
      </trkpt>
      <trkpt lat="59.97954910621" lon="15.783848371357">
        <ele>30</ele>
        <time>2014-11-16T14:20:20Z</time>
      </trkpt>
      <trkpt lat="59.97947299853" lon="15.783698167652">
        <ele>31</ele>
        <time>2014-11-16T14:20:24Z</time>
      </trkpt>
      <trkpt lat="59.979450618848" lon="15.783666484058">
        <ele>31.4</ele>
        <time>2014-11-16T14:20:25Z</time>
      </trkpt>
      <trkpt lat="59.979405021295" lon="15.783604290336">
        <ele>32</ele>
        <time>2014-11-16T14:20:27Z</time>
      </trkpt>
      <trkpt lat="59.97924534604" lon="15.783421061933">
        <ele>33</ele>
        <time>2014-11-16T14:20:33Z</time>
      </trkpt>
      <trkpt lat="59.97921844013" lon="15.783389797434">
        <ele>33.2</ele>
        <time>2014-11-16T14:20:34Z</time>
      </trkpt>
      <trkpt lat="59.9791795481" lon="15.783358952031">
        <ele>33.2</ele>
        <time>2014-11-16T14:20:35Z</time>
      </trkpt>
      <trkpt lat="59.979015262797" lon="15.783240934834">
        <ele>32.4</ele>
        <time>2014-11-16T14:20:41Z</time>
      </trkpt>
      <trkpt lat="59.978994810954" lon="15.783228194341">
        <ele>32.2</ele>
        <time>2014-11-16T14:20:42Z</time>
      </trkpt>
      <trkpt lat="59.978884756565" lon="15.78316080384">
        <ele>31.2</ele>
        <time>2014-11-16T14:20:46Z</time>
      </trkpt>
      <trkpt lat="59.978817868978" lon="15.783107914031">
        <ele>31</ele>
        <time>2014-11-16T14:20:48Z</time>
      </trkpt>
      <trkpt lat="59.978756513447" lon="15.783077571541">
        <ele>30.2</ele>
        <time>2014-11-16T14:20:50Z</time>
      </trkpt>
      <trkpt lat="59.978687278926" lon="15.783019149676">
        <ele>29.6</ele>
        <time>2014-11-16T14:20:52Z</time>
      </trkpt>
      <trkpt lat="59.97859432362" lon="15.782967014238">
        <ele>29</ele>
        <time>2014-11-16T14:20:55Z</time>
      </trkpt>
      <trkpt lat="59.978533973917" lon="15.782926948741">
        <ele>28.4</ele>
        <time>2014-11-16T14:20:57Z</time>
      </trkpt>
      <trkpt lat="59.978421153501" lon="15.782874394208">
        <ele>27.2</ele>
        <time>2014-11-16T14:21:01Z</time>
      </trkpt>
      <trkpt lat="59.978375555947" lon="15.782849499956">
        <ele>26.6</ele>
        <time>2014-11-16T14:21:03Z</time>
      </trkpt>
      <trkpt lat="59.978289976716" lon="15.782767608762">
        <ele>26.2</ele>
        <time>2014-11-16T14:21:06Z</time>
      </trkpt>
      <trkpt lat="59.978211270645" lon="15.782671384513">
        <ele>25.2</ele>
        <time>2014-11-16T14:21:09Z</time>
      </trkpt>
      <trkpt lat="59.978192830458" lon="15.782649423927">
        <ele>24.8</ele>
        <time>2014-11-16T14:21:10Z</time>
      </trkpt>
      <trkpt lat="59.978088056669" lon="15.782441468909">
        <ele>24.4</ele>
        <time>2014-11-16T14:21:16Z</time>
      </trkpt>
      <trkpt lat="59.977976996452" lon="15.782178109512">
        <ele>23.8</ele>
        <time>2014-11-16T14:21:22Z</time>
      </trkpt>
      <trkpt lat="59.977955538779" lon="15.782133769244">
        <ele>23.8</ele>
        <time>2014-11-16T14:21:23Z</time>
      </trkpt>
      <trkpt lat="59.977867612615" lon="15.781908715144">
        <ele>22.8</ele>
        <time>2014-11-16T14:21:28Z</time>
      </trkpt>
      <trkpt lat="59.977828804404" lon="15.781823052093">
        <ele>22.6</ele>
        <time>2014-11-16T14:21:30Z</time>
      </trkpt>
      <trkpt lat="59.977716403082" lon="15.781567068771">
        <ele>22.6</ele>
        <time>2014-11-16T14:21:36Z</time>
      </trkpt>
      <trkpt lat="59.977605510503" lon="15.781414266676">
        <ele>22.4</ele>
        <time>2014-11-16T14:21:41Z</time>
      </trkpt>
      <trkpt lat="59.977483637631" lon="15.781288202852">
        <ele>22.4</ele>
        <time>2014-11-16T14:21:46Z</time>
      </trkpt>
      <trkpt lat="59.977435944602" lon="15.781220979989">
        <ele>22.4</ele>
        <time>2014-11-16T14:21:48Z</time>
      </trkpt>
      <trkpt lat="59.977396214381" lon="15.78117672354">
        <ele>22.2</ele>
        <time>2014-11-16T14:21:50Z</time>
      </trkpt>
      <trkpt lat="59.977304097265" lon="15.781013024971">
        <ele>22.6</ele>
        <time>2014-11-16T14:21:55Z</time>
      </trkpt>
      <trkpt lat="59.977240813896" lon="15.780888637528">
        <ele>23</ele>
        <time>2014-11-16T14:21:58Z</time>
      </trkpt>
      <trkpt lat="59.97715733014" lon="15.780757293105">
        <ele>23.4</ele>
        <time>2014-11-16T14:22:02Z</time>
      </trkpt>
      <trkpt lat="59.977032355964" lon="15.78058722429">
        <ele>23.2</ele>
        <time>2014-11-16T14:22:07Z</time>
      </trkpt>
      <trkpt lat="59.976863125339" lon="15.780496113002">
        <ele>23.2</ele>
        <time>2014-11-16T14:22:13Z</time>
      </trkpt>
      <trkpt lat="59.976735301316" lon="15.7804564666">
        <ele>22.8</ele>
        <time>2014-11-16T14:22:17Z</time>
      </trkpt>
      <trkpt lat="59.976560119539" lon="15.780404750258">
        <ele>22.2</ele>
        <time>2014-11-16T14:22:23Z</time>
      </trkpt>
      <trkpt lat="59.976498093456" lon="15.780384549871">
        <ele>21.6</ele>
        <time>2014-11-16T14:22:25Z</time>
      </trkpt>
      <trkpt lat="59.976406982169" lon="15.780381700024">
        <ele>21.6</ele>
        <time>2014-11-16T14:22:28Z</time>
      </trkpt>
      <trkpt lat="59.976207073778" lon="15.780358817428">
        <ele>21.6</ele>
        <time>2014-11-16T14:22:34Z</time>
      </trkpt>
      <trkpt lat="59.976084362715" lon="15.780395613983">
        <ele>21.4</ele>
        <time>2014-11-16T14:22:38Z</time>
      </trkpt>
      <trkpt lat="59.975917479023" lon="15.780436769128">
        <ele>21.4</ele>
        <time>2014-11-16T14:22:44Z</time>
      </trkpt>
      <trkpt lat="59.975755792111" lon="15.78046602197">
        <ele>22</ele>
        <time>2014-11-16T14:22:50Z</time>
      </trkpt>
      <trkpt lat="59.975619502366" lon="15.780440457165">
        <ele>22.4</ele>
        <time>2014-11-16T14:22:55Z</time>
      </trkpt>
      <trkpt lat="59.975474998355" lon="15.780402068049">
        <ele>22.4</ele>
        <time>2014-11-16T14:23:00Z</time>
      </trkpt>
      <trkpt lat="59.975280873477" lon="15.780253876001">
        <ele>22</ele>
        <time>2014-11-16T14:23:07Z</time>
      </trkpt>
      <trkpt lat="59.975256649777" lon="15.780233256519">
        <ele>21.8</ele>
        <time>2014-11-16T14:23:08Z</time>
      </trkpt>
      <trkpt lat="59.975107284263" lon="15.780055141076">
        <ele>21.8</ele>
        <time>2014-11-16T14:23:14Z</time>
      </trkpt>
      <trkpt lat="59.974953811616" lon="15.779909882694">
        <ele>21.6</ele>
        <time>2014-11-16T14:23:20Z</time>
      </trkpt>
      <trkpt lat="59.974806038663" lon="15.779785830528">
        <ele>21.8</ele>
        <time>2014-11-16T14:23:26Z</time>
      </trkpt>
      <trkpt lat="59.974683243781" lon="15.779708214104">
        <ele>22</ele>
        <time>2014-11-16T14:23:31Z</time>
      </trkpt>
      <trkpt lat="59.974487107247" lon="15.779585754499">
        <ele>21.8</ele>
        <time>2014-11-16T14:23:38Z</time>
      </trkpt>
      <trkpt lat="59.974357690662" lon="15.779495481402">
        <ele>21.4</ele>
        <time>2014-11-16T14:23:43Z</time>
      </trkpt>
      <trkpt lat="59.974183095619" lon="15.779396155849">
        <ele>21.8</ele>
        <time>2014-11-16T14:23:49Z</time>
      </trkpt>
      <trkpt lat="59.974004477262" lon="15.779309738427">
        <ele>21.4</ele>
        <time>2014-11-16T14:23:55Z</time>
      </trkpt>
      <trkpt lat="59.973897524178" lon="15.779229188338">
        <ele>21.6</ele>
        <time>2014-11-16T14:23:59Z</time>
      </trkpt>
      <trkpt lat="59.973793840036" lon="15.779162719846">
        <ele>22</ele>
        <time>2014-11-16T14:24:03Z</time>
      </trkpt>
      <trkpt lat="59.973614718765" lon="15.779063561931">
        <ele>22</ele>
        <time>2014-11-16T14:24:09Z</time>
      </trkpt>
      <trkpt lat="59.9735805206" lon="15.779055347666">
        <ele>21.8</ele>
        <time>2014-11-16T14:24:10Z</time>
      </trkpt>
      <trkpt lat="59.973411792889" lon="15.779004134238">
        <ele>22.4</ele>
        <time>2014-11-16T14:24:16Z</time>
      </trkpt>
      <trkpt lat="59.973255386576" lon="15.779001619667">
        <ele>22.2</ele>
        <time>2014-11-16T14:24:21Z</time>
      </trkpt>
      <trkpt lat="59.973086826503" lon="15.779177304357">
        <ele>21.6</ele>
        <time>2014-11-16T14:24:27Z</time>
      </trkpt>
      <trkpt lat="59.973064279184" lon="15.77922122553">
        <ele>21.6</ele>
        <time>2014-11-16T14:24:28Z</time>
      </trkpt>
      <trkpt lat="59.972995631397" lon="15.77930261381">
        <ele>21.6</ele>
        <time>2014-11-16T14:24:31Z</time>
      </trkpt>
      <trkpt lat="59.972969647497" lon="15.77930605039">
        <ele>21.4</ele>
        <time>2014-11-16T14:24:32Z</time>
      </trkpt>
      <trkpt lat="59.972781138495" lon="15.779231786728">
        <ele>22.2</ele>
        <time>2014-11-16T14:24:39Z</time>
      </trkpt>
      <trkpt lat="59.972758004442" lon="15.779219632968">
        <ele>22.2</ele>
        <time>2014-11-16T14:24:40Z</time>
      </trkpt>
      <trkpt lat="59.972552563995" lon="15.779161127284">
        <ele>22.2</ele>
        <time>2014-11-16T14:24:47Z</time>
      </trkpt>
      <trkpt lat="59.972520209849" lon="15.779168838635">
        <ele>22.4</ele>
        <time>2014-11-16T14:24:48Z</time>
      </trkpt>
      <trkpt lat="59.972460195422" lon="15.779202366248">
        <ele>23</ele>
        <time>2014-11-16T14:24:50Z</time>
      </trkpt>
      <trkpt lat="59.972341842949" lon="15.77925927937">
        <ele>23</ele>
        <time>2014-11-16T14:24:54Z</time>
      </trkpt>
      <trkpt lat="59.972161799669" lon="15.779339326546">
        <ele>23.4</ele>
        <time>2014-11-16T14:25:01Z</time>
      </trkpt>
      <trkpt lat="59.972137995064" lon="15.779303535819">
        <ele>23.6</ele>
        <time>2014-11-16T14:25:02Z</time>
      </trkpt>
      <trkpt lat="59.972071861848" lon="15.779161211103">
        <ele>23.4</ele>
        <time>2014-11-16T14:25:05Z</time>
      </trkpt>
      <trkpt lat="59.971957197413" lon="15.778926350176">
        <ele>23.4</ele>
        <time>2014-11-16T14:25:10Z</time>
      </trkpt>
      <trkpt lat="59.971854016185" lon="15.77871738933">
        <ele>23.4</ele>
        <time>2014-11-16T14:25:15Z</time>
      </trkpt>
      <trkpt lat="59.971710098907" lon="15.778416898102">
        <ele>23.2</ele>
        <time>2014-11-16T14:25:22Z</time>
      </trkpt>
      <trkpt lat="59.971599625424" lon="15.77816426754">
        <ele>23</ele>
        <time>2014-11-16T14:25:28Z</time>
      </trkpt>
      <trkpt lat="59.97147959657" lon="15.777909290045">
        <ele>23</ele>
        <time>2014-11-16T14:25:34Z</time>
      </trkpt>
      <trkpt lat="59.971387060359" lon="15.777687169611">
        <ele>23.2</ele>
        <time>2014-11-16T14:25:39Z</time>
      </trkpt>
      <trkpt lat="59.971261918545" lon="15.777415931225">
        <ele>23</ele>
        <time>2014-11-16T14:25:45Z</time>
      </trkpt>
      <trkpt lat="59.971191678196" lon="15.777259441093">
        <ele>23</ele>
        <time>2014-11-16T14:25:49Z</time>
      </trkpt>
      <trkpt lat="59.971077013761" lon="15.777017036453">
        <ele>23.2</ele>
        <time>2014-11-16T14:25:55Z</time>
      </trkpt>
      <trkpt lat="59.970961678773" lon="15.776760969311">
        <ele>23.4</ele>
        <time>2014-11-16T14:26:01Z</time>
      </trkpt>
      <trkpt lat="59.970849612728" lon="15.77651085332">
        <ele>23.4</ele>
        <time>2014-11-16T14:26:07Z</time>
      </trkpt>
      <trkpt lat="59.970732768998" lon="15.776263084263">
        <ele>23.4</ele>
        <time>2014-11-16T14:26:13Z</time>
      </trkpt>
      <trkpt lat="59.970625312999" lon="15.776037527248">
        <ele>24</ele>
        <time>2014-11-16T14:26:19Z</time>
      </trkpt>
      <trkpt lat="59.970550546423" lon="15.775889754295">
        <ele>24.2</ele>
        <time>2014-11-16T14:26:23Z</time>
      </trkpt>
      <trkpt lat="59.970457172021" lon="15.775718428195">
        <ele>24.4</ele>
        <time>2014-11-16T14:26:28Z</time>
      </trkpt>
      <trkpt lat="59.970398163423" lon="15.775611391291">
        <ele>25</ele>
        <time>2014-11-16T14:26:32Z</time>
      </trkpt>
      <trkpt lat="59.97038626112" lon="15.775584317744">
        <ele>25.2</ele>
        <time>2014-11-16T14:26:33Z</time>
      </trkpt>
      <trkpt lat="59.97030663304" lon="15.775431180373">
        <ele>25.8</ele>
        <time>2014-11-16T14:26:37Z</time>
      </trkpt>
      <trkpt lat="59.970252402127" lon="15.775310648605">
        <ele>26.2</ele>
        <time>2014-11-16T14:26:40Z</time>
      </trkpt>
      <trkpt lat="59.970237147063" lon="15.77527041547">
        <ele>26.4</ele>
        <time>2014-11-16T14:26:41Z</time>
      </trkpt>
      <trkpt lat="59.970143605024" lon="15.775089282542">
        <ele>27.4</ele>
        <time>2014-11-16T14:26:46Z</time>
      </trkpt>
      <trkpt lat="59.970030197874" lon="15.774850482121">
        <ele>27.6</ele>
        <time>2014-11-16T14:26:52Z</time>
      </trkpt>
      <trkpt lat="59.969919472933" lon="15.774628529325">
        <ele>28</ele>
        <time>2014-11-16T14:26:58Z</time>
      </trkpt>
      <trkpt lat="59.969858620316" lon="15.77451210469">
        <ele>28.4</ele>
        <time>2014-11-16T14:27:01Z</time>
      </trkpt>
      <trkpt lat="59.969783434644" lon="15.774356536567">
        <ele>28.6</ele>
        <time>2014-11-16T14:27:05Z</time>
      </trkpt>
      <trkpt lat="59.969674469903" lon="15.774174649268">
        <ele>28.8</ele>
        <time>2014-11-16T14:27:10Z</time>
      </trkpt>
      <trkpt lat="59.969565002248" lon="15.773967951536">
        <ele>29</ele>
        <time>2014-11-16T14:27:16Z</time>
      </trkpt>
      <trkpt lat="59.969495683908" lon="15.773802408949">
        <ele>29.4</ele>
        <time>2014-11-16T14:27:20Z</time>
      </trkpt>
      <trkpt lat="59.969459306449" lon="15.77372261323">
        <ele>29.4</ele>
        <time>2014-11-16T14:27:22Z</time>
      </trkpt>
      <trkpt lat="59.969417480752" lon="15.773639380932">
        <ele>29.6</ele>
        <time>2014-11-16T14:27:24Z</time>
      </trkpt>
      <trkpt lat="59.969329722226" lon="15.773439723998">
        <ele>29.8</ele>
        <time>2014-11-16T14:27:29Z</time>
      </trkpt>
      <trkpt lat="59.969210531563" lon="15.7732041087">
        <ele>30.4</ele>
        <time>2014-11-16T14:27:35Z</time>
      </trkpt>
      <trkpt lat="59.969130149111" lon="15.773003781214">
        <ele>30.4</ele>
        <time>2014-11-16T14:27:40Z</time>
      </trkpt>
      <trkpt lat="59.969113217667" lon="15.772962877527">
        <ele>30.4</ele>
        <time>2014-11-16T14:27:41Z</time>
      </trkpt>
      <trkpt lat="59.969046581537" lon="15.772788533941">
        <ele>31</ele>
        <time>2014-11-16T14:27:45Z</time>
      </trkpt>
      <trkpt lat="59.968941388652" lon="15.772520480677">
        <ele>31.4</ele>
        <time>2014-11-16T14:27:52Z</time>
      </trkpt>
      <trkpt lat="59.968925295398" lon="15.772485695779">
        <ele>31.6</ele>
        <time>2014-11-16T14:27:53Z</time>
      </trkpt>
      <trkpt lat="59.968842482194" lon="15.772350076586">
        <ele>31.8</ele>
        <time>2014-11-16T14:27:57Z</time>
      </trkpt>
      <trkpt lat="59.968734439462" lon="15.772207584232">
        <ele>32.4</ele>
        <time>2014-11-16T14:28:02Z</time>
      </trkpt>
      <trkpt lat="59.96869395487" lon="15.772147653624">
        <ele>32.6</ele>
        <time>2014-11-16T14:28:04Z</time>
      </trkpt>
      <trkpt lat="59.968586917967" lon="15.771988313645">
        <ele>33</ele>
        <time>2014-11-16T14:28:09Z</time>
      </trkpt>
      <trkpt lat="59.968494465575" lon="15.77179921791">
        <ele>33.8</ele>
        <time>2014-11-16T14:28:14Z</time>
      </trkpt>
      <trkpt lat="59.968410646543" lon="15.771604087204">
        <ele>34.8</ele>
        <time>2014-11-16T14:28:18Z</time>
      </trkpt>
      <trkpt lat="59.968399582431" lon="15.771574750543">
        <ele>34.8</ele>
        <time>2014-11-16T14:28:19Z</time>
      </trkpt>
      <trkpt lat="59.968333365396" lon="15.771422870457">
        <ele>35.2</ele>
        <time>2014-11-16T14:28:23Z</time>
      </trkpt>
      <trkpt lat="59.96826287359" lon="15.771287670359">
        <ele>36</ele>
        <time>2014-11-16T14:28:27Z</time>
      </trkpt>
      <trkpt lat="59.968229681253" lon="15.771231679246">
        <ele>36.4</ele>
        <time>2014-11-16T14:28:29Z</time>
      </trkpt>
      <trkpt lat="59.968160865828" lon="15.771093796939">
        <ele>37.2</ele>
        <time>2014-11-16T14:28:33Z</time>
      </trkpt>
      <trkpt lat="59.968150220811" lon="15.771066471934">
        <ele>37</ele>
        <time>2014-11-16T14:28:34Z</time>
      </trkpt>
      <trkpt lat="59.96802566573" lon="15.770837981254">
        <ele>37.8</ele>
        <time>2014-11-16T14:28:40Z</time>
      </trkpt>
      <trkpt lat="59.968011667952" lon="15.770808728412">
        <ele>38.2</ele>
        <time>2014-11-16T14:28:41Z</time>
      </trkpt>
      <trkpt lat="59.967950480059" lon="15.770691465586">
        <ele>38.4</ele>
        <time>2014-11-16T14:28:44Z</time>
      </trkpt>
      <trkpt lat="59.96785257943" lon="15.770502202213">
        <ele>39</ele>
        <time>2014-11-16T14:28:49Z</time>
      </trkpt>
      <trkpt lat="59.967831205577" lon="15.770465154201">
        <ele>39.2</ele>
        <time>2014-11-16T14:28:50Z</time>
      </trkpt>
      <trkpt lat="59.967769095674" lon="15.770345879719">
        <ele>39.6</ele>
        <time>2014-11-16T14:28:54Z</time>
      </trkpt>
      <trkpt lat="59.967680415139" lon="15.770179079846">
        <ele>40.4</ele>
        <time>2014-11-16T14:28:59Z</time>
      </trkpt>
      <trkpt lat="59.967642528936" lon="15.770117389038">
        <ele>40.6</ele>
        <time>2014-11-16T14:29:01Z</time>
      </trkpt>
      <trkpt lat="59.967579329386" lon="15.769976237789">
        <ele>41.2</ele>
        <time>2014-11-16T14:29:05Z</time>
      </trkpt>
      <trkpt lat="59.967543371022" lon="15.769924018532">
        <ele>41.6</ele>
        <time>2014-11-16T14:29:07Z</time>
      </trkpt>
      <trkpt lat="59.96748729609" lon="15.769832571968">
        <ele>42</ele>
        <time>2014-11-16T14:29:10Z</time>
      </trkpt>
      <trkpt lat="59.967407248914" lon="15.769646912813">
        <ele>42.6</ele>
        <time>2014-11-16T14:29:15Z</time>
      </trkpt>
      <trkpt lat="59.967315969989" lon="15.769478688017">
        <ele>43.4</ele>
        <time>2014-11-16T14:29:20Z</time>
      </trkpt>
      <trkpt lat="59.967284956947" lon="15.769417919219">
        <ele>43.6</ele>
        <time>2014-11-16T14:29:22Z</time>
      </trkpt>
      <trkpt lat="59.967212956399" lon="15.769294789061">
        <ele>44.2</ele>
        <time>2014-11-16T14:29:26Z</time>
      </trkpt>
      <trkpt lat="59.967159228399" lon="15.769201330841">
        <ele>44.6</ele>
        <time>2014-11-16T14:29:29Z</time>
      </trkpt>
      <trkpt lat="59.967127293348" lon="15.769138969481">
        <ele>44.8</ele>
        <time>2014-11-16T14:29:31Z</time>
      </trkpt>
      <trkpt lat="59.966989075765" lon="15.768908131868">
        <ele>45.8</ele>
        <time>2014-11-16T14:29:38Z</time>
      </trkpt>
      <trkpt lat="59.966859910637" lon="15.768682491034">
        <ele>46.6</ele>
        <time>2014-11-16T14:29:45Z</time>
      </trkpt>
      <trkpt lat="59.966840464622" lon="15.768648292869">
        <ele>47</ele>
        <time>2014-11-16T14:29:46Z</time>
      </trkpt>
      <trkpt lat="59.966768547893" lon="15.768529856578">
        <ele>47.8</ele>
        <time>2014-11-16T14:29:50Z</time>
      </trkpt>
      <trkpt lat="59.966750526801" lon="15.768506806344">
        <ele>48</ele>
        <time>2014-11-16T14:29:51Z</time>
      </trkpt>
      <trkpt lat="59.966678693891" lon="15.768386526033">
        <ele>48.6</ele>
        <time>2014-11-16T14:29:55Z</time>
      </trkpt>
      <trkpt lat="59.966623205692" lon="15.768306478858">
        <ele>49</ele>
        <time>2014-11-16T14:29:58Z</time>
      </trkpt>
      <trkpt lat="59.966608453542" lon="15.768285272643">
        <ele>49</ele>
        <time>2014-11-16T14:29:59Z</time>
      </trkpt>
      <trkpt lat="59.966502757743" lon="15.76810372062">
        <ele>49.6</ele>
        <time>2014-11-16T14:30:04Z</time>
      </trkpt>
      <trkpt lat="59.966401252896" lon="15.767935495824">
        <ele>50.2</ele>
        <time>2014-11-16T14:30:09Z</time>
      </trkpt>
      <trkpt lat="59.966307124123" lon="15.767797362059">
        <ele>50.6</ele>
        <time>2014-11-16T14:30:14Z</time>
      </trkpt>
      <trkpt lat="59.966212240979" lon="15.767659144476">
        <ele>51</ele>
        <time>2014-11-16T14:30:19Z</time>
      </trkpt>
      <trkpt lat="59.966148789972" lon="15.767563255504">
        <ele>51.2</ele>
        <time>2014-11-16T14:30:22Z</time>
      </trkpt>
      <trkpt lat="59.966084500775" lon="15.76747097075">
        <ele>51.4</ele>
        <time>2014-11-16T14:30:25Z</time>
      </trkpt>
      <trkpt lat="59.965957598761" lon="15.767282964662">
        <ele>52</ele>
        <time>2014-11-16T14:30:31Z</time>
      </trkpt>
      <trkpt lat="59.965845784172" lon="15.767121110111">
        <ele>52.4</ele>
        <time>2014-11-16T14:30:36Z</time>
      </trkpt>
      <trkpt lat="59.965821811929" lon="15.767091605812">
        <ele>52.4</ele>
        <time>2014-11-16T14:30:37Z</time>
      </trkpt>
      <trkpt lat="59.96569625102" lon="15.766910556704">
        <ele>52.6</ele>
        <time>2014-11-16T14:30:43Z</time>
      </trkpt>
      <trkpt lat="59.965561637655" lon="15.766705870628">
        <ele>52.6</ele>
        <time>2014-11-16T14:30:49Z</time>
      </trkpt>
      <trkpt lat="59.965396095067" lon="15.766477296129">
        <ele>52.6</ele>
        <time>2014-11-16T14:30:56Z</time>
      </trkpt>
      <trkpt lat="59.96526776813" lon="15.766279399395">
        <ele>53</ele>
        <time>2014-11-16T14:31:02Z</time>
      </trkpt>
      <trkpt lat="59.96511974372" lon="15.76603657566">
        <ele>53.2</ele>
        <time>2014-11-16T14:31:09Z</time>
      </trkpt>
      <trkpt lat="59.96509552002" lon="15.766003215685">
        <ele>53.4</ele>
        <time>2014-11-16T14:31:10Z</time>
      </trkpt>
      <trkpt lat="59.965013628826" lon="15.765877235681">
        <ele>53.4</ele>
        <time>2014-11-16T14:31:14Z</time>
      </trkpt>
      <trkpt lat="59.964881530032" lon="15.765661066398">
        <ele>53.4</ele>
        <time>2014-11-16T14:31:20Z</time>
      </trkpt>
      <trkpt lat="59.964795028791" lon="15.765388822183">
        <ele>53.6</ele>
        <time>2014-11-16T14:31:26Z</time>
      </trkpt>
      <trkpt lat="59.964817240834" lon="15.76512680389">
        <ele>54</ele>
        <time>2014-11-16T14:31:31Z</time>
      </trkpt>
      <trkpt lat="59.964877171442" lon="15.76485062018">
        <ele>54</ele>
        <time>2014-11-16T14:31:36Z</time>
      </trkpt>
      <trkpt lat="59.964936012402" lon="15.76458835043">
        <ele>54</ele>
        <time>2014-11-16T14:31:41Z</time>
      </trkpt>
      <trkpt lat="59.965007593855" lon="15.764279393479">
        <ele>54.2</ele>
        <time>2014-11-16T14:31:47Z</time>
      </trkpt>
      <trkpt lat="59.965084958822" lon="15.763946967199">
        <ele>54.2</ele>
        <time>2014-11-16T14:31:53Z</time>
      </trkpt>
      <trkpt lat="59.965176740661" lon="15.763578834012">
        <ele>54.4</ele>
        <time>2014-11-16T14:32:00Z</time>
      </trkpt>
      <trkpt lat="59.965253267437" lon="15.763283036649">
        <ele>54.4</ele>
        <time>2014-11-16T14:32:06Z</time>
      </trkpt>
      <trkpt lat="59.965343791991" lon="15.763029232621">
        <ele>54</ele>
        <time>2014-11-16T14:32:12Z</time>
      </trkpt>
      <trkpt lat="59.9655006174" lon="15.762965027243">
        <ele>53.4</ele>
        <time>2014-11-16T14:32:18Z</time>
      </trkpt>
      <trkpt lat="59.965552333742" lon="15.762968882918">
        <ele>53.2</ele>
        <time>2014-11-16T14:32:20Z</time>
      </trkpt>
      <trkpt lat="59.965633973479" lon="15.762989167124">
        <ele>53.2</ele>
        <time>2014-11-16T14:32:23Z</time>
      </trkpt>
      <trkpt lat="59.965790715069" lon="15.763074243441">
        <ele>53</ele>
        <time>2014-11-16T14:32:29Z</time>
      </trkpt>
      <trkpt lat="59.965941505507" lon="15.763202318922">
        <ele>53</ele>
        <time>2014-11-16T14:32:35Z</time>
      </trkpt>
      <trkpt lat="59.966025995091" lon="15.763275660574">
        <ele>52.2</ele>
        <time>2014-11-16T14:32:38Z</time>
      </trkpt>
      <trkpt lat="59.966107551008" lon="15.763337351382">
        <ele>51.6</ele>
        <time>2014-11-16T14:32:41Z</time>
      </trkpt>
      <trkpt lat="59.966272423044" lon="15.763483196497">
        <ele>51</ele>
        <time>2014-11-16T14:32:47Z</time>
      </trkpt>
      <trkpt lat="59.966418854892" lon="15.763596184552">
        <ele>51</ele>
        <time>2014-11-16T14:32:52Z</time>
      </trkpt>
      <trkpt lat="59.966552127153" lon="15.763717219234">
        <ele>50.8</ele>
        <time>2014-11-16T14:32:57Z</time>
      </trkpt>
      <trkpt lat="59.966709539294" lon="15.763840517029">
        <ele>50.8</ele>
        <time>2014-11-16T14:33:03Z</time>
      </trkpt>
      <trkpt lat="59.966880697757" lon="15.763938585296">
        <ele>51.2</ele>
        <time>2014-11-16T14:33:09Z</time>
      </trkpt>
      <trkpt lat="59.96704749763" lon="15.763999521732">
        <ele>52</ele>
        <time>2014-11-16T14:33:15Z</time>
      </trkpt>
      <trkpt lat="59.967079097405" lon="15.764005389065">
        <ele>52.2</ele>
        <time>2014-11-16T14:33:16Z</time>
      </trkpt>
      <trkpt lat="59.967247908935" lon="15.764019554481">
        <ele>53.2</ele>
        <time>2014-11-16T14:33:22Z</time>
      </trkpt>
      <trkpt lat="59.967268612236" lon="15.764024332166">
        <ele>53.4</ele>
        <time>2014-11-16T14:33:23Z</time>
      </trkpt>
      <trkpt lat="59.967384366319" lon="15.764022991061">
        <ele>53.2</ele>
        <time>2014-11-16T14:33:27Z</time>
      </trkpt>
      <trkpt lat="59.967535072938" lon="15.764022404328">
        <ele>52.2</ele>
        <time>2014-11-16T14:33:32Z</time>
      </trkpt>
      <trkpt lat="59.967594835907" lon="15.764021063223">
        <ele>52</ele>
        <time>2014-11-16T14:33:34Z</time>
      </trkpt>
      <trkpt lat="59.967688797042" lon="15.764016536996">
        <ele>51.2</ele>
        <time>2014-11-16T14:33:37Z</time>
      </trkpt>
      <trkpt lat="59.967777058482" lon="15.764009496197">
        <ele>50.2</ele>
        <time>2014-11-16T14:33:40Z</time>
      </trkpt>
      <trkpt lat="59.967858027667" lon="15.764005891979">
        <ele>49</ele>
        <time>2014-11-16T14:33:43Z</time>
      </trkpt>
      <trkpt lat="59.967920556664" lon="15.764000527561">
        <ele>48.8</ele>
        <time>2014-11-16T14:33:45Z</time>
      </trkpt>
      <trkpt lat="59.96806900017" lon="15.763977393508">
        <ele>48.2</ele>
        <time>2014-11-16T14:33:50Z</time>
      </trkpt>
      <trkpt lat="59.968146951869" lon="15.76395819895">
        <ele>48</ele>
        <time>2014-11-16T14:33:53Z</time>
      </trkpt>
      <trkpt lat="59.968222975731" lon="15.763936154544">
        <ele>47.4</ele>
        <time>2014-11-16T14:33:56Z</time>
      </trkpt>
      <trkpt lat="59.968402180821" lon="15.763901453465">
        <ele>47.6</ele>
        <time>2014-11-16T14:34:03Z</time>
      </trkpt>
      <trkpt lat="59.968428416178" lon="15.763896256685">
        <ele>47.6</ele>
        <time>2014-11-16T14:34:04Z</time>
      </trkpt>
      <trkpt lat="59.968556407839" lon="15.763883180916">
        <ele>48.2</ele>
        <time>2014-11-16T14:34:09Z</time>
      </trkpt>
      <trkpt lat="59.968723459169" lon="15.763839762658">
        <ele>48.4</ele>
        <time>2014-11-16T14:34:16Z</time>
      </trkpt>
      <trkpt lat="59.968839213252" lon="15.763817299157">
        <ele>49</ele>
        <time>2014-11-16T14:34:21Z</time>
      </trkpt>
      <trkpt lat="59.968861592934" lon="15.763809587806">
        <ele>49.2</ele>
        <time>2014-11-16T14:34:22Z</time>
      </trkpt>
      <trkpt lat="59.968971647322" lon="15.76378075406">
        <ele>50</ele>
        <time>2014-11-16T14:34:27Z</time>
      </trkpt>
      <trkpt lat="59.969042893499" lon="15.763748986647">
        <ele>50.4</ele>
        <time>2014-11-16T14:34:30Z</time>
      </trkpt>
      <trkpt lat="59.969106763601" lon="15.76371579431">
        <ele>51</ele>
        <time>2014-11-16T14:34:33Z</time>
      </trkpt>
      <trkpt lat="59.969190750271" lon="15.763663072139">
        <ele>51.4</ele>
        <time>2014-11-16T14:34:37Z</time>
      </trkpt>
      <trkpt lat="59.969251016155" lon="15.763628790155">
        <ele>51.8</ele>
        <time>2014-11-16T14:34:40Z</time>
      </trkpt>
      <trkpt lat="59.969355538487" lon="15.763561567292">
        <ele>52.6</ele>
        <time>2014-11-16T14:34:45Z</time>
      </trkpt>
      <trkpt lat="59.969393005595" lon="15.763538181782">
        <ele>53</ele>
        <time>2014-11-16T14:34:47Z</time>
      </trkpt>
      <trkpt lat="59.969490822405" lon="15.763485375792">
        <ele>53.8</ele>
        <time>2014-11-16T14:34:52Z</time>
      </trkpt>
      <trkpt lat="59.969529043883" lon="15.763470204547">
        <ele>54</ele>
        <time>2014-11-16T14:34:54Z</time>
      </trkpt>
      <trkpt lat="59.969641780481" lon="15.763401640579">
        <ele>55</ele>
        <time>2014-11-16T14:35:00Z</time>
      </trkpt>
      <trkpt lat="59.969660555944" lon="15.763385631144">
        <ele>55.2</ele>
        <time>2014-11-16T14:35:01Z</time>
      </trkpt>
      <trkpt lat="59.969769520685" lon="15.763314049691">
        <ele>55.6</ele>
        <time>2014-11-16T14:35:07Z</time>
      </trkpt>
      <trkpt lat="59.96985736303" lon="15.76326132752">
        <ele>56.2</ele>
        <time>2014-11-16T14:35:11Z</time>
      </trkpt>
      <trkpt lat="59.969898182899" lon="15.763227045536">
        <ele>56.4</ele>
        <time>2014-11-16T14:35:13Z</time>
      </trkpt>
      <trkpt lat="59.969995412976" lon="15.763159403577">
        <ele>57.2</ele>
        <time>2014-11-16T14:35:18Z</time>
      </trkpt>
      <trkpt lat="59.970013601705" lon="15.763144148514">
        <ele>57.2</ele>
        <time>2014-11-16T14:35:19Z</time>
      </trkpt>
      <trkpt lat="59.97009281069" lon="15.763085391372">
        <ele>57.8</ele>
        <time>2014-11-16T14:35:23Z</time>
      </trkpt>
      <trkpt lat="59.970158524811" lon="15.763029819354">
        <ele>58.2</ele>
        <time>2014-11-16T14:35:26Z</time>
      </trkpt>
      <trkpt lat="59.970232369378" lon="15.762941390276">
        <ele>58.6</ele>
        <time>2014-11-16T14:35:30Z</time>
      </trkpt>
      <trkpt lat="59.970363462344" lon="15.762770818546">
        <ele>58.6</ele>
        <time>2014-11-16T14:35:37Z</time>
      </trkpt>
      <trkpt lat="59.970499249175" lon="15.762550374493">
        <ele>58.4</ele>
        <time>2014-11-16T14:35:45Z</time>
      </trkpt>
      <trkpt lat="59.970602346584" lon="15.762364966795">
        <ele>58.4</ele>
        <time>2014-11-16T14:35:51Z</time>
      </trkpt>
      <trkpt lat="59.970715586096" lon="15.762157430872">
        <ele>57.8</ele>
        <time>2014-11-16T14:35:57Z</time>
      </trkpt>
      <trkpt lat="59.970791190863" lon="15.762010831386">
        <ele>57</ele>
        <time>2014-11-16T14:36:01Z</time>
      </trkpt>
      <trkpt lat="59.970831004903" lon="15.761937238276">
        <ele>56.6</ele>
        <time>2014-11-16T14:36:03Z</time>
      </trkpt>
      <trkpt lat="59.970936700702" lon="15.761735485867">
        <ele>56</ele>
        <time>2014-11-16T14:36:08Z</time>
      </trkpt>
      <trkpt lat="59.970954889432" lon="15.761703969911">
        <ele>55.6</ele>
        <time>2014-11-16T14:36:09Z</time>
      </trkpt>
      <trkpt lat="59.971073158085" lon="15.761463493109">
        <ele>55</ele>
        <time>2014-11-16T14:36:15Z</time>
      </trkpt>
      <trkpt lat="59.971176926047" lon="15.761253274977">
        <ele>54.2</ele>
        <time>2014-11-16T14:36:20Z</time>
      </trkpt>
      <trkpt lat="59.971308605745" lon="15.760991843417">
        <ele>54.2</ele>
        <time>2014-11-16T14:36:27Z</time>
      </trkpt>
      <trkpt lat="59.971349341795" lon="15.760906012729">
        <ele>54</ele>
        <time>2014-11-16T14:36:29Z</time>
      </trkpt>
      <trkpt lat="59.971431652084" lon="15.760751701891">
        <ele>53.6</ele>
        <time>2014-11-16T14:36:33Z</time>
      </trkpt>
      <trkpt lat="59.971561655402" lon="15.760486749932">
        <ele>53.6</ele>
        <time>2014-11-16T14:36:40Z</time>
      </trkpt>
      <trkpt lat="59.971678582951" lon="15.760270664468">
        <ele>53</ele>
        <time>2014-11-16T14:36:47Z</time>
      </trkpt>
      <trkpt lat="59.97173842974" lon="15.760160945356">
        <ele>52.8</ele>
        <time>2014-11-16T14:36:50Z</time>
      </trkpt>
      <trkpt lat="59.971797773615" lon="15.760040497407">
        <ele>52.6</ele>
        <time>2014-11-16T14:36:53Z</time>
      </trkpt>
      <trkpt lat="59.971912940964" lon="15.759833296761">
        <ele>52</ele>
        <time>2014-11-16T14:36:59Z</time>
      </trkpt>
      <trkpt lat="59.971940685064" lon="15.759782670066">
        <ele>51.8</ele>
        <time>2014-11-16T14:37:00Z</time>
      </trkpt>
      <trkpt lat="59.972056187689" lon="15.759559711441">
        <ele>51.2</ele>
        <time>2014-11-16T14:37:06Z</time>
      </trkpt>
      <trkpt lat="59.972156016156" lon="15.759358210489">
        <ele>51.2</ele>
        <time>2014-11-16T14:37:12Z</time>
      </trkpt>
      <trkpt lat="59.972303956747" lon="15.759058222175">
        <ele>50.8</ele>
        <time>2014-11-16T14:37:20Z</time>
      </trkpt>
      <trkpt lat="59.972440414131" lon="15.758812213317">
        <ele>50.8</ele>
        <time>2014-11-16T14:37:27Z</time>
      </trkpt>
      <trkpt lat="59.972462207079" lon="15.758767705411">
        <ele>50.6</ele>
        <time>2014-11-16T14:37:28Z</time>
      </trkpt>
      <trkpt lat="59.972562287003" lon="15.758580872789">
        <ele>49.4</ele>
        <time>2014-11-16T14:37:33Z</time>
      </trkpt>
      <trkpt lat="59.972601011395" lon="15.758510045707">
        <ele>49</ele>
        <time>2014-11-16T14:37:35Z</time>
      </trkpt>
      <trkpt lat="59.972660942003" lon="15.758372079581">
        <ele>48.4</ele>
        <time>2014-11-16T14:37:38Z</time>
      </trkpt>
      <trkpt lat="59.972735876217" lon="15.758189940825">
        <ele>47.8</ele>
        <time>2014-11-16T14:37:42Z</time>
      </trkpt>
      <trkpt lat="59.972767811269" lon="15.758105283603">
        <ele>47.2</ele>
        <time>2014-11-16T14:37:44Z</time>
      </trkpt>
      <trkpt lat="59.972818940878" lon="15.757975531742">
        <ele>46.6</ele>
        <time>2014-11-16T14:37:47Z</time>
      </trkpt>
      <trkpt lat="59.97287074104" lon="15.757837733254">
        <ele>46.2</ele>
        <time>2014-11-16T14:37:50Z</time>
      </trkpt>
      <trkpt lat="59.97290443629" lon="15.75775324367">
        <ele>46.2</ele>
        <time>2014-11-16T14:37:52Z</time>
      </trkpt>
      <trkpt lat="59.972983561456" lon="15.757532548159">
        <ele>45.6</ele>
        <time>2014-11-16T14:37:57Z</time>
      </trkpt>
      <trkpt lat="59.973078109324" lon="15.757274301723">
        <ele>45.4</ele>
        <time>2014-11-16T14:38:03Z</time>
      </trkpt>
      <trkpt lat="59.973154133186" lon="15.757064921781">
        <ele>45.6</ele>
        <time>2014-11-16T14:38:08Z</time>
      </trkpt>
      <trkpt lat="59.973245747387" lon="15.756792593747">
        <ele>45.2</ele>
        <time>2014-11-16T14:38:15Z</time>
      </trkpt>
      <trkpt lat="59.973335349932" lon="15.75659151189">
        <ele>45.6</ele>
        <time>2014-11-16T14:38:20Z</time>
      </trkpt>
      <trkpt lat="59.973445655778" lon="15.756354052573">
        <ele>46</ele>
        <time>2014-11-16T14:38:26Z</time>
      </trkpt>
      <trkpt lat="59.973575994372" lon="15.756097733974">
        <ele>46</ele>
        <time>2014-11-16T14:38:33Z</time>
      </trkpt>
      <trkpt lat="59.973614048213" lon="15.756043251604">
        <ele>46.4</ele>
        <time>2014-11-16T14:38:35Z</time>
      </trkpt>
      <trkpt lat="59.973693760112" lon="15.755921630189">
        <ele>46.2</ele>
        <time>2014-11-16T14:38:38Z</time>
      </trkpt>
      <trkpt lat="59.973810100928" lon="15.755731863901">
        <ele>46.6</ele>
        <time>2014-11-16T14:38:44Z</time>
      </trkpt>
      <trkpt lat="59.973919317126" lon="15.755562298">
        <ele>46.6</ele>
        <time>2014-11-16T14:38:49Z</time>
      </trkpt>
      <trkpt lat="59.974064826965" lon="15.755357611924">
        <ele>46.6</ele>
        <time>2014-11-16T14:38:55Z</time>
      </trkpt>
      <trkpt lat="59.974162559956" lon="15.755172288045">
        <ele>46.2</ele>
        <time>2014-11-16T14:39:00Z</time>
      </trkpt>
      <trkpt lat="59.974242104217" lon="15.755035327747">
        <ele>46</ele>
        <time>2014-11-16T14:39:06Z</time>
      </trkpt>
      <trkpt lat="59.974319888279" lon="15.755130965263">
        <ele>46.2</ele>
        <time>2014-11-16T14:39:11Z</time>
      </trkpt>
      <trkpt lat="59.974381159991" lon="15.755441682413">
        <ele>46.6</ele>
        <time>2014-11-16T14:39:18Z</time>
      </trkpt>
      <trkpt lat="59.974428769201" lon="15.755729433149">
        <ele>46.6</ele>
        <time>2014-11-16T14:39:25Z</time>
      </trkpt>
      <trkpt lat="59.974465398118" lon="15.755881983787">
        <ele>47.2</ele>
        <time>2014-11-16T14:39:29Z</time>
      </trkpt>
      <trkpt lat="59.9745084811" lon="15.756020536646">
        <ele>47.6</ele>
        <time>2014-11-16T14:39:33Z</time>
      </trkpt>
      <trkpt lat="59.974559526891" lon="15.756254056469">
        <ele>48.2</ele>
        <time>2014-11-16T14:39:38Z</time>
      </trkpt>
      <trkpt lat="59.974585762247" lon="15.756325302646">
        <ele>48.6</ele>
        <time>2014-11-16T14:39:40Z</time>
      </trkpt>
      <trkpt lat="59.974638400599" lon="15.756439967081">
        <ele>49.4</ele>
        <time>2014-11-16T14:39:44Z</time>
      </trkpt>
      <trkpt lat="59.974694894627" lon="15.756570054218">
        <ele>50.2</ele>
        <time>2014-11-16T14:39:48Z</time>
      </trkpt>
      <trkpt lat="59.974723476917" lon="15.756680024788">
        <ele>50.6</ele>
        <time>2014-11-16T14:39:51Z</time>
      </trkpt>
      <trkpt lat="59.974758345634" lon="15.756853278726">
        <ele>51.6</ele>
        <time>2014-11-16T14:39:55Z</time>
      </trkpt>
      <trkpt lat="59.97479849495" lon="15.757058048621">
        <ele>52.8</ele>
        <time>2014-11-16T14:40:00Z</time>
      </trkpt>
      <trkpt lat="59.974806960672" lon="15.757107585669">
        <ele>52.8</ele>
        <time>2014-11-16T14:40:01Z</time>
      </trkpt>
      <trkpt lat="59.974844427779" lon="15.757350660861">
        <ele>53.8</ele>
        <time>2014-11-16T14:40:07Z</time>
      </trkpt>
      <trkpt lat="59.97486253269" lon="15.757429283112">
        <ele>54</ele>
        <time>2014-11-16T14:40:08Z</time>
      </trkpt>
      <trkpt lat="59.97490586713" lon="15.757637405768">
        <ele>55</ele>
        <time>2014-11-16T14:40:13Z</time>
      </trkpt>
      <trkpt lat="59.974915506318" lon="15.757695073262">
        <ele>55.2</ele>
        <time>2014-11-16T14:40:14Z</time>
      </trkpt>
      <trkpt lat="59.974954146892" lon="15.7579445187">
        <ele>56</ele>
        <time>2014-11-16T14:40:20Z</time>
      </trkpt>
      <trkpt lat="59.97496118769" lon="15.757975867018">
        <ele>56.2</ele>
        <time>2014-11-16T14:40:21Z</time>
      </trkpt>
      <trkpt lat="59.975021118298" lon="15.758286667988">
        <ele>57.2</ele>
        <time>2014-11-16T14:40:28Z</time>
      </trkpt>
      <trkpt lat="59.975053388625" lon="15.758411725983">
        <ele>58.2</ele>
        <time>2014-11-16T14:40:31Z</time>
      </trkpt>
      <trkpt lat="59.975071577355" lon="15.758535442874">
        <ele>59</ele>
        <time>2014-11-16T14:40:34Z</time>
      </trkpt>
      <trkpt lat="59.975084736943" lon="15.758613729849">
        <ele>59.6</ele>
        <time>2014-11-16T14:40:36Z</time>
      </trkpt>
      <trkpt lat="59.975124131888" lon="15.75881187804">
        <ele>60.6</ele>
        <time>2014-11-16T14:40:41Z</time>
      </trkpt>
      <trkpt lat="59.975152881816" lon="15.759024191648">
        <ele>61.6</ele>
        <time>2014-11-16T14:40:45Z</time>
      </trkpt>
      <trkpt lat="59.975170986727" lon="15.759276822209">
        <ele>62.8</ele>
        <time>2014-11-16T14:40:50Z</time>
      </trkpt>
      <trkpt lat="59.975180877373" lon="15.759595585987">
        <ele>63.6</ele>
        <time>2014-11-16T14:40:57Z</time>
      </trkpt>
      <trkpt lat="59.975188672543" lon="15.759742604569">
        <ele>63.8</ele>
        <time>2014-11-16T14:41:00Z</time>
      </trkpt>
      <trkpt lat="59.975195629522" lon="15.759940249845">
        <ele>64</ele>
        <time>2014-11-16T14:41:04Z</time>
      </trkpt>
      <trkpt lat="59.975257739425" lon="15.760206878185">
        <ele>64.4</ele>
        <time>2014-11-16T14:41:10Z</time>
      </trkpt>
      <trkpt lat="59.975319514051" lon="15.76040041633">
        <ele>65</ele>
        <time>2014-11-16T14:41:15Z</time>
      </trkpt>
      <trkpt lat="59.97533694841" lon="15.760430339724">
        <ele>65.2</ele>
        <time>2014-11-16T14:41:16Z</time>
      </trkpt>
      <trkpt lat="59.975389083847" lon="15.760616585612">
        <ele>66</ele>
        <time>2014-11-16T14:41:20Z</time>
      </trkpt>
      <trkpt lat="59.975430658087" lon="15.760711552575">
        <ele>66</ele>
        <time>2014-11-16T14:41:22Z</time>
      </trkpt>
      <trkpt lat="59.975483715534" lon="15.760879358277">
        <ele>66.4</ele>
        <time>2014-11-16T14:41:26Z</time>
      </trkpt>
      <trkpt lat="59.975530402735" lon="15.761046577245">
        <ele>67</ele>
        <time>2014-11-16T14:41:30Z</time>
      </trkpt>
      <trkpt lat="59.975550016388" lon="15.761155039072">
        <ele>67.4</ele>
        <time>2014-11-16T14:41:33Z</time>
      </trkpt>
      <trkpt lat="59.975580694154" lon="15.761361652985">
        <ele>67.6</ele>
        <time>2014-11-16T14:41:37Z</time>
      </trkpt>
      <trkpt lat="59.975579353049" lon="15.761506492272">
        <ele>68</ele>
        <time>2014-11-16T14:41:40Z</time>
      </trkpt>
      <trkpt lat="59.975590333343" lon="15.761639261618">
        <ele>68.4</ele>
        <time>2014-11-16T14:41:43Z</time>
      </trkpt>
      <trkpt lat="59.975597877055" lon="15.761913601309">
        <ele>68.8</ele>
        <time>2014-11-16T14:41:49Z</time>
      </trkpt>
      <trkpt lat="59.975602068007" lon="15.761992139742">
        <ele>69.2</ele>
        <time>2014-11-16T14:41:51Z</time>
      </trkpt>
      <trkpt lat="59.975614640862" lon="15.762057686225">
        <ele>69.4</ele>
        <time>2014-11-16T14:41:53Z</time>
      </trkpt>
      <trkpt lat="59.975622184575" lon="15.76211610809">
        <ele>69.4</ele>
        <time>2014-11-16T14:41:54Z</time>
      </trkpt>
      <trkpt lat="59.975656215101" lon="15.762332445011">
        <ele>70.2</ele>
        <time>2014-11-16T14:41:59Z</time>
      </trkpt>
      <trkpt lat="59.975664680824" lon="15.76236622408">
        <ele>70.6</ele>
        <time>2014-11-16T14:42:00Z</time>
      </trkpt>
      <trkpt lat="59.975703908131" lon="15.762536963448">
        <ele>71.4</ele>
        <time>2014-11-16T14:42:04Z</time>
      </trkpt>
      <trkpt lat="59.975723270327" lon="15.762593122199">
        <ele>71.4</ele>
        <time>2014-11-16T14:42:05Z</time>
      </trkpt>
      <trkpt lat="59.975801892579" lon="15.762803172693">
        <ele>72.4</ele>
        <time>2014-11-16T14:42:10Z</time>
      </trkpt>
      <trkpt lat="59.97581907548" lon="15.762842399999">
        <ele>72.6</ele>
        <time>2014-11-16T14:42:11Z</time>
      </trkpt>
      <trkpt lat="59.975924184546" lon="15.763056725264">
        <ele>73.2</ele>
        <time>2014-11-16T14:42:17Z</time>
      </trkpt>
      <trkpt lat="59.975949414074" lon="15.76313585043">
        <ele>73.6</ele>
        <time>2014-11-16T14:42:19Z</time>
      </trkpt>
      <trkpt lat="59.975979588926" lon="15.763184968382">
        <ele>73.4</ele>
        <time>2014-11-16T14:42:21Z</time>
      </trkpt>
      <trkpt lat="59.976020241156" lon="15.763236684725">
        <ele>73.8</ele>
        <time>2014-11-16T14:42:23Z</time>
      </trkpt>
      <trkpt lat="59.976119985804" lon="15.763440281153">
        <ele>74.4</ele>
        <time>2014-11-16T14:42:29Z</time>
      </trkpt>
      <trkpt lat="59.976145550609" lon="15.763524016365">
        <ele>74.8</ele>
        <time>2014-11-16T14:42:31Z</time>
      </trkpt>
      <trkpt lat="59.976181844249" lon="15.763735994697">
        <ele>75.6</ele>
        <time>2014-11-16T14:42:36Z</time>
      </trkpt>
      <trkpt lat="59.976180838421" lon="15.763792656362">
        <ele>76</ele>
        <time>2014-11-16T14:42:37Z</time>
      </trkpt>
      <trkpt lat="59.976172791794" lon="15.763957360759">
        <ele>76.6</ele>
        <time>2014-11-16T14:42:41Z</time>
      </trkpt>
      <trkpt lat="59.976165248081" lon="15.764061547816">
        <ele>77</ele>
        <time>2014-11-16T14:42:44Z</time>
      </trkpt>
      <trkpt lat="59.976136246696" lon="15.764248799533">
        <ele>77.6</ele>
        <time>2014-11-16T14:42:48Z</time>
      </trkpt>
      <trkpt lat="59.976124009117" lon="15.764338318259">
        <ele>78</ele>
        <time>2014-11-16T14:42:50Z</time>
      </trkpt>
      <trkpt lat="59.976103724912" lon="15.764539483935">
        <ele>78.4</ele>
        <time>2014-11-16T14:42:54Z</time>
      </trkpt>
      <trkpt lat="59.976127948612" lon="15.764891607687">
        <ele>78.6</ele>
        <time>2014-11-16T14:43:01Z</time>
      </trkpt>
      <trkpt lat="59.97622417286" lon="15.765194529667">
        <ele>78.4</ele>
        <time>2014-11-16T14:43:07Z</time>
      </trkpt>
      <trkpt lat="59.97635576874" lon="15.765503989533">
        <ele>77.8</ele>
        <time>2014-11-16T14:43:14Z</time>
      </trkpt>
      <trkpt lat="59.976418549195" lon="15.765646481887">
        <ele>77</ele>
        <time>2014-11-16T14:43:19Z</time>
      </trkpt>
    </trkseg>
  </trk>
</gpx>